<?xml version="1.0" encoding="UTF-8" standalone="no" ?>
<gpx xmlns="http://www.topografix.com/GPX/1/1" xmlns:xsi="http://www.w3.org/2001/XMLSchema-instance" xsi:schemaLocation="http://www.topografix.com/GPX/1/1 http://www.topografix.com/GPX/1/1/gpx.xsd" version="1.1" creator="VisuGPX - https://www.visugpx.com">
  <metadata>
    <name>Chamechaude tour anti-horaire par col de Pravouta</name>
    <desc><![CDATA[Chamechaude tour anti-horaire par col de Pravouta]]></desc>
  </metadata>
  <trk>
    <name><![CDATA[TOURDECHAMECA]]></name>
    <trkseg>
      <trkpt lat="45.25262" lon="5.7704">
        <ele>980.682</ele>
        <time>2010-06-26T06:23:06Z</time>
      </trkpt>
      <trkpt lat="45.25374" lon="5.77083">
        <ele>981.163</ele>
        <time>2010-06-26T06:23:24Z</time>
      </trkpt>
      <trkpt lat="45.25399" lon="5.77091">
        <ele>979.721</ele>
        <time>2010-06-26T06:23:28Z</time>
      </trkpt>
      <trkpt lat="45.25462" lon="5.77132">
        <ele>975.395</ele>
        <time>2010-06-26T06:23:37Z</time>
      </trkpt>
      <trkpt lat="45.25472" lon="5.77149">
        <ele>974.914</ele>
        <time>2010-06-26T06:23:41Z</time>
      </trkpt>
      <trkpt lat="45.25487" lon="5.77261">
        <ele>971.549</ele>
        <time>2010-06-26T06:24:05Z</time>
      </trkpt>
      <trkpt lat="45.25556" lon="5.77437">
        <ele>972.511</ele>
        <time>2010-06-26T06:24:45Z</time>
      </trkpt>
      <trkpt lat="45.25605" lon="5.77535">
        <ele>976.837</ele>
        <time>2010-06-26T06:25:07Z</time>
      </trkpt>
      <trkpt lat="45.25659" lon="5.77675">
        <ele>977.798</ele>
        <time>2010-06-26T06:25:38Z</time>
      </trkpt>
      <trkpt lat="45.25674" lon="5.77748">
        <ele>980.201</ele>
        <time>2010-06-26T06:26:04Z</time>
      </trkpt>
      <trkpt lat="45.25717" lon="5.77729">
        <ele>983.566</ele>
        <time>2010-06-26T06:26:24Z</time>
      </trkpt>
      <trkpt lat="45.25781" lon="5.77761">
        <ele>987.411</ele>
        <time>2010-06-26T06:26:55Z</time>
      </trkpt>
      <trkpt lat="45.25822" lon="5.77844">
        <ele>994.141</ele>
        <time>2010-06-26T06:27:26Z</time>
      </trkpt>
      <trkpt lat="45.25859" lon="5.77902">
        <ele>998.466</ele>
        <time>2010-06-26T06:27:51Z</time>
      </trkpt>
      <trkpt lat="45.25829" lon="5.77917">
        <ele>1002.312</ele>
        <time>2010-06-26T06:28:03Z</time>
      </trkpt>
      <trkpt lat="45.25826" lon="5.77937">
        <ele>1002.792</ele>
        <time>2010-06-26T06:28:07Z</time>
      </trkpt>
      <trkpt lat="45.25846" lon="5.78095">
        <ele>1002.792</ele>
        <time>2010-06-26T06:28:37Z</time>
      </trkpt>
      <trkpt lat="45.25893" lon="5.78259">
        <ele>1005.196</ele>
        <time>2010-06-26T06:29:09Z</time>
      </trkpt>
      <trkpt lat="45.25962" lon="5.78467">
        <ele>1009.522</ele>
        <time>2010-06-26T06:29:50Z</time>
      </trkpt>
      <trkpt lat="45.26015" lon="5.78585">
        <ele>1014.328</ele>
        <time>2010-06-26T06:30:20Z</time>
      </trkpt>
      <trkpt lat="45.26017" lon="5.78563">
        <ele>1019.615</ele>
        <time>2010-06-26T06:32:19Z</time>
      </trkpt>
      <trkpt lat="45.26045" lon="5.78628">
        <ele>1020.096</ele>
        <time>2010-06-26T06:32:42Z</time>
      </trkpt>
      <trkpt lat="45.26093" lon="5.78776">
        <ele>1021.058</ele>
        <time>2010-06-26T06:33:09Z</time>
      </trkpt>
      <trkpt lat="45.26153" lon="5.78915">
        <ele>1024.422</ele>
        <time>2010-06-26T06:33:42Z</time>
      </trkpt>
      <trkpt lat="45.26232" lon="5.79052">
        <ele>1031.151</ele>
        <time>2010-06-26T06:34:34Z</time>
      </trkpt>
      <trkpt lat="45.26363" lon="5.79192">
        <ele>1037.881</ele>
        <time>2010-06-26T06:35:36Z</time>
      </trkpt>
      <trkpt lat="45.265" lon="5.79342">
        <ele>1041.245</ele>
        <time>2010-06-26T06:36:39Z</time>
      </trkpt>
      <trkpt lat="45.26532" lon="5.79383">
        <ele>1066.72</ele>
        <time>2010-06-26T06:37:00Z</time>
      </trkpt>
      <trkpt lat="45.26614" lon="5.79402">
        <ele>1064.797</ele>
        <time>2010-06-26T06:37:11Z</time>
      </trkpt>
      <trkpt lat="45.2665" lon="5.79467">
        <ele>1064.797</ele>
        <time>2010-06-26T06:37:39Z</time>
      </trkpt>
      <trkpt lat="45.26711" lon="5.79572">
        <ele>1073.93</ele>
        <time>2010-06-26T06:38:29Z</time>
      </trkpt>
      <trkpt lat="45.26831" lon="5.79698">
        <ele>1084.505</ele>
        <time>2010-06-26T06:39:47Z</time>
      </trkpt>
      <trkpt lat="45.26919" lon="5.79735">
        <ele>1096.04</ele>
        <time>2010-06-26T06:40:17Z</time>
      </trkpt>
      <trkpt lat="45.26996" lon="5.79791">
        <ele>1100.847</ele>
        <time>2010-06-26T06:40:49Z</time>
      </trkpt>
      <trkpt lat="45.27054" lon="5.79859">
        <ele>1104.692</ele>
        <time>2010-06-26T06:41:31Z</time>
      </trkpt>
      <trkpt lat="45.27118" lon="5.79979">
        <ele>1115.267</ele>
        <time>2010-06-26T06:42:32Z</time>
      </trkpt>
      <trkpt lat="45.27163" lon="5.80179">
        <ele>1121.035</ele>
        <time>2010-06-26T06:43:48Z</time>
      </trkpt>
      <trkpt lat="45.27155" lon="5.80175">
        <ele>1122.957</ele>
        <time>2010-06-26T06:43:57Z</time>
      </trkpt>
      <trkpt lat="45.27082" lon="5.80102">
        <ele>1129.206</ele>
        <time>2010-06-26T06:44:37Z</time>
      </trkpt>
      <trkpt lat="45.26989" lon="5.80018">
        <ele>1139.3</ele>
        <time>2010-06-26T06:45:08Z</time>
      </trkpt>
      <trkpt lat="45.2694" lon="5.79992">
        <ele>1145.548</ele>
        <time>2010-06-26T06:45:33Z</time>
      </trkpt>
      <trkpt lat="45.26938" lon="5.79992">
        <ele>1146.99</ele>
        <time>2010-06-26T06:45:34Z</time>
      </trkpt>
      <trkpt lat="45.26899" lon="5.79967">
        <ele>1151.316</ele>
        <time>2010-06-26T06:45:53Z</time>
      </trkpt>
      <trkpt lat="45.2688" lon="5.79941">
        <ele>1151.797</ele>
        <time>2010-06-26T06:46:03Z</time>
      </trkpt>
      <trkpt lat="45.26906" lon="5.79982">
        <ele>1155.642</ele>
        <time>2010-06-26T06:46:21Z</time>
      </trkpt>
      <trkpt lat="45.26925" lon="5.8004">
        <ele>1163.333</ele>
        <time>2010-06-26T06:46:45Z</time>
      </trkpt>
      <trkpt lat="45.26925" lon="5.80042">
        <ele>1163.333</ele>
        <time>2010-06-26T06:46:46Z</time>
      </trkpt>
      <trkpt lat="45.26919" lon="5.80037">
        <ele>1165.736</ele>
        <time>2010-06-26T06:46:50Z</time>
      </trkpt>
      <trkpt lat="45.2688" lon="5.80018">
        <ele>1170.062</ele>
        <time>2010-06-26T06:47:08Z</time>
      </trkpt>
      <trkpt lat="45.26809" lon="5.80055">
        <ele>1174.868</ele>
        <time>2010-06-26T06:47:54Z</time>
      </trkpt>
      <trkpt lat="45.26788" lon="5.80055">
        <ele>1178.714</ele>
        <time>2010-06-26T06:48:10Z</time>
      </trkpt>
      <trkpt lat="45.26734" lon="5.80044">
        <ele>1186.404</ele>
        <time>2010-06-26T06:48:45Z</time>
      </trkpt>
      <trkpt lat="45.26678" lon="5.8004">
        <ele>1193.133</ele>
        <time>2010-06-26T06:49:20Z</time>
      </trkpt>
      <trkpt lat="45.26616" lon="5.80016">
        <ele>1209.476</ele>
        <time>2010-06-26T06:49:54Z</time>
      </trkpt>
      <trkpt lat="45.26526" lon="5.79945">
        <ele>1219.089</ele>
        <time>2010-06-26T06:50:42Z</time>
      </trkpt>
      <trkpt lat="45.26417" lon="5.79904">
        <ele>1223.896</ele>
        <time>2010-06-26T06:51:30Z</time>
      </trkpt>
      <trkpt lat="45.26346" lon="5.79853">
        <ele>1227.26</ele>
        <time>2010-06-26T06:52:10Z</time>
      </trkpt>
      <trkpt lat="45.26318" lon="5.79797">
        <ele>1233.509</ele>
        <time>2010-06-26T06:52:33Z</time>
      </trkpt>
      <trkpt lat="45.26305" lon="5.79791">
        <ele>1235.431</ele>
        <time>2010-06-26T06:52:40Z</time>
      </trkpt>
      <trkpt lat="45.26264" lon="5.79803">
        <ele>1238.796</ele>
        <time>2010-06-26T06:52:58Z</time>
      </trkpt>
      <trkpt lat="45.26217" lon="5.79773">
        <ele>1241.68</ele>
        <time>2010-06-26T06:53:23Z</time>
      </trkpt>
      <trkpt lat="45.262" lon="5.79756">
        <ele>1242.641</ele>
        <time>2010-06-26T06:53:34Z</time>
      </trkpt>
      <trkpt lat="45.26196" lon="5.79769">
        <ele>1246.487</ele>
        <time>2010-06-26T06:53:41Z</time>
      </trkpt>
      <trkpt lat="45.26226" lon="5.79816">
        <ele>1253.697</ele>
        <time>2010-06-26T06:54:06Z</time>
      </trkpt>
      <trkpt lat="45.26301" lon="5.799">
        <ele>1258.022</ele>
        <time>2010-06-26T06:54:51Z</time>
      </trkpt>
      <trkpt lat="45.26367" lon="5.79997">
        <ele>1265.713</ele>
        <time>2010-06-26T06:55:39Z</time>
      </trkpt>
      <trkpt lat="45.26472" lon="5.80085">
        <ele>1277.249</ele>
        <time>2010-06-26T06:56:36Z</time>
      </trkpt>
      <trkpt lat="45.26535" lon="5.80166">
        <ele>1284.939</ele>
        <time>2010-06-26T06:57:17Z</time>
      </trkpt>
      <trkpt lat="45.26571" lon="5.80213">
        <ele>1292.149</ele>
        <time>2010-06-26T06:57:42Z</time>
      </trkpt>
      <trkpt lat="45.26644" lon="5.80299">
        <ele>1299.84</ele>
        <time>2010-06-26T06:58:33Z</time>
      </trkpt>
      <trkpt lat="45.26698" lon="5.80359">
        <ele>1308.011</ele>
        <time>2010-06-26T06:59:06Z</time>
      </trkpt>
      <trkpt lat="45.26773" lon="5.80458">
        <ele>1316.182</ele>
        <time>2010-06-26T06:59:53Z</time>
      </trkpt>
      <trkpt lat="45.26841" lon="5.80539">
        <ele>1320.989</ele>
        <time>2010-06-26T07:00:31Z</time>
      </trkpt>
      <trkpt lat="45.26908" lon="5.80623">
        <ele>1328.679</ele>
        <time>2010-06-26T07:01:17Z</time>
      </trkpt>
      <trkpt lat="45.26964" lon="5.80711">
        <ele>1337.812</ele>
        <time>2010-06-26T07:01:59Z</time>
      </trkpt>
      <trkpt lat="45.27013" lon="5.80784">
        <ele>1346.944</ele>
        <time>2010-06-26T07:02:32Z</time>
      </trkpt>
      <trkpt lat="45.27101" lon="5.80881">
        <ele>1352.712</ele>
        <time>2010-06-26T07:03:18Z</time>
      </trkpt>
      <trkpt lat="45.27191" lon="5.80928">
        <ele>1355.115</ele>
        <time>2010-06-26T07:03:53Z</time>
      </trkpt>
      <trkpt lat="45.2723" lon="5.80917">
        <ele>1355.115</ele>
        <time>2010-06-26T07:04:04Z</time>
      </trkpt>
      <trkpt lat="45.27238" lon="5.80919">
        <ele>1355.115</ele>
        <time>2010-06-26T07:04:06Z</time>
      </trkpt>
      <trkpt lat="45.27251" lon="5.80926">
        <ele>1354.635</ele>
        <time>2010-06-26T07:04:08Z</time>
      </trkpt>
      <trkpt lat="45.27318" lon="5.80999">
        <ele>1353.674</ele>
        <time>2010-06-26T07:04:21Z</time>
      </trkpt>
      <trkpt lat="45.27344" lon="5.80984">
        <ele>1352.712</ele>
        <time>2010-06-26T07:04:27Z</time>
      </trkpt>
      <trkpt lat="45.27371" lon="5.80945">
        <ele>1355.115</ele>
        <time>2010-06-26T07:04:36Z</time>
      </trkpt>
      <trkpt lat="45.27386" lon="5.80945">
        <ele>1357.519</ele>
        <time>2010-06-26T07:04:40Z</time>
      </trkpt>
      <trkpt lat="45.27442" lon="5.80994">
        <ele>1360.403</ele>
        <time>2010-06-26T07:05:01Z</time>
      </trkpt>
      <trkpt lat="45.27472" lon="5.81095">
        <ele>1364.248</ele>
        <time>2010-06-26T07:05:32Z</time>
      </trkpt>
      <trkpt lat="45.27462" lon="5.81211">
        <ele>1370.977</ele>
        <time>2010-06-26T07:05:59Z</time>
      </trkpt>
      <trkpt lat="45.27492" lon="5.81301">
        <ele>1374.823</ele>
        <time>2010-06-26T07:06:24Z</time>
      </trkpt>
      <trkpt lat="45.27558" lon="5.81376">
        <ele>1380.591</ele>
        <time>2010-06-26T07:07:02Z</time>
      </trkpt>
      <trkpt lat="45.2758" lon="5.81393">
        <ele>1385.397</ele>
        <time>2010-06-26T07:07:28Z</time>
      </trkpt>
      <trkpt lat="45.27616" lon="5.81428">
        <ele>1385.878</ele>
        <time>2010-06-26T07:07:47Z</time>
      </trkpt>
      <trkpt lat="45.27618" lon="5.81428">
        <ele>1385.878</ele>
        <time>2010-06-26T07:07:48Z</time>
      </trkpt>
      <trkpt lat="45.27668" lon="5.81385">
        <ele>1385.878</ele>
        <time>2010-06-26T07:08:07Z</time>
      </trkpt>
      <trkpt lat="45.27723" lon="5.81318">
        <ele>1385.397</ele>
        <time>2010-06-26T07:08:29Z</time>
      </trkpt>
      <trkpt lat="45.2773" lon="5.81308">
        <ele>1384.917</ele>
        <time>2010-06-26T07:08:32Z</time>
      </trkpt>
      <trkpt lat="45.27728" lon="5.81271">
        <ele>1386.358</ele>
        <time>2010-06-26T07:08:37Z</time>
      </trkpt>
      <trkpt lat="45.2774" lon="5.81211">
        <ele>1388.762</ele>
        <time>2010-06-26T07:08:50Z</time>
      </trkpt>
      <trkpt lat="45.27788" lon="5.81127">
        <ele>1389.242</ele>
        <time>2010-06-26T07:09:13Z</time>
      </trkpt>
      <trkpt lat="45.27809" lon="5.81044">
        <ele>1389.242</ele>
        <time>2010-06-26T07:09:33Z</time>
      </trkpt>
      <trkpt lat="45.27816" lon="5.80994">
        <ele>1389.723</ele>
        <time>2010-06-26T07:09:49Z</time>
      </trkpt>
      <trkpt lat="45.27826" lon="5.80919">
        <ele>1389.723</ele>
        <time>2010-06-26T07:10:08Z</time>
      </trkpt>
      <trkpt lat="45.27828" lon="5.80911">
        <ele>1390.204</ele>
        <time>2010-06-26T07:10:10Z</time>
      </trkpt>
      <trkpt lat="45.27841" lon="5.80902">
        <ele>1390.684</ele>
        <time>2010-06-26T07:10:15Z</time>
      </trkpt>
      <trkpt lat="45.27904" lon="5.80885">
        <ele>1395.491</ele>
        <time>2010-06-26T07:10:38Z</time>
      </trkpt>
      <trkpt lat="45.28011" lon="5.80876">
        <ele>1396.452</ele>
        <time>2010-06-26T07:11:13Z</time>
      </trkpt>
      <trkpt lat="45.28015" lon="5.80874">
        <ele>1396.452</ele>
        <time>2010-06-26T07:11:15Z</time>
      </trkpt>
      <trkpt lat="45.28045" lon="5.80844">
        <ele>1398.855</ele>
        <time>2010-06-26T07:11:25Z</time>
      </trkpt>
      <trkpt lat="45.28075" lon="5.80855">
        <ele>1402.701</ele>
        <time>2010-06-26T07:11:47Z</time>
      </trkpt>
      <trkpt lat="45.28118" lon="5.80898">
        <ele>1411.833</ele>
        <time>2010-06-26T07:12:24Z</time>
      </trkpt>
      <trkpt lat="45.28146" lon="5.80936">
        <ele>1418.563</ele>
        <time>2010-06-26T07:12:58Z</time>
      </trkpt>
      <trkpt lat="45.28135" lon="5.80975">
        <ele>1423.85</ele>
        <time>2010-06-26T07:13:22Z</time>
      </trkpt>
      <trkpt lat="45.28137" lon="5.80986">
        <ele>1424.811</ele>
        <time>2010-06-26T07:13:27Z</time>
      </trkpt>
      <trkpt lat="45.28152" lon="5.80986">
        <ele>1428.656</ele>
        <time>2010-06-26T07:13:38Z</time>
      </trkpt>
      <trkpt lat="45.28165" lon="5.81027">
        <ele>1432.502</ele>
        <time>2010-06-26T07:14:04Z</time>
      </trkpt>
      <trkpt lat="45.28172" lon="5.81035">
        <ele>1432.982</ele>
        <time>2010-06-26T07:14:10Z</time>
      </trkpt>
      <trkpt lat="45.28167" lon="5.81042">
        <ele>1433.944</ele>
        <time>2010-06-26T07:14:15Z</time>
      </trkpt>
      <trkpt lat="45.28165" lon="5.81048">
        <ele>1434.905</ele>
        <time>2010-06-26T07:14:19Z</time>
      </trkpt>
      <trkpt lat="45.28165" lon="5.81061">
        <ele>1435.385</ele>
        <time>2010-06-26T07:14:29Z</time>
      </trkpt>
      <trkpt lat="45.28191" lon="5.81102">
        <ele>1434.905</ele>
        <time>2010-06-26T07:14:49Z</time>
      </trkpt>
      <trkpt lat="45.28234" lon="5.81179">
        <ele>1436.347</ele>
        <time>2010-06-26T07:15:20Z</time>
      </trkpt>
      <trkpt lat="45.28268" lon="5.81239">
        <ele>1439.231</ele>
        <time>2010-06-26T07:15:46Z</time>
      </trkpt>
      <trkpt lat="45.28288" lon="5.81297">
        <ele>1442.115</ele>
        <time>2010-06-26T07:16:13Z</time>
      </trkpt>
      <trkpt lat="45.28288" lon="5.81303">
        <ele>1442.596</ele>
        <time>2010-06-26T07:16:16Z</time>
      </trkpt>
      <trkpt lat="45.28283" lon="5.81299">
        <ele>1442.596</ele>
        <time>2010-06-26T07:16:19Z</time>
      </trkpt>
      <trkpt lat="45.28255" lon="5.81271">
        <ele>1445.96</ele>
        <time>2010-06-26T07:16:41Z</time>
      </trkpt>
      <trkpt lat="45.28238" lon="5.81263">
        <ele>1448.844</ele>
        <time>2010-06-26T07:17:05Z</time>
      </trkpt>
      <trkpt lat="45.28228" lon="5.81258">
        <ele>1449.805</ele>
        <time>2010-06-26T07:17:16Z</time>
      </trkpt>
      <trkpt lat="45.28195" lon="5.81254">
        <ele>1453.651</ele>
        <time>2010-06-26T07:17:49Z</time>
      </trkpt>
      <trkpt lat="45.28159" lon="5.81243">
        <ele>1458.457</ele>
        <time>2010-06-26T07:18:25Z</time>
      </trkpt>
      <trkpt lat="45.28142" lon="5.81248">
        <ele>1460.861</ele>
        <time>2010-06-26T07:18:46Z</time>
      </trkpt>
      <trkpt lat="45.28112" lon="5.81248">
        <ele>1463.744</ele>
        <time>2010-06-26T07:19:15Z</time>
      </trkpt>
      <trkpt lat="45.28092" lon="5.81252">
        <ele>1465.187</ele>
        <time>2010-06-26T07:19:34Z</time>
      </trkpt>
      <trkpt lat="45.28088" lon="5.81256">
        <ele>1465.667</ele>
        <time>2010-06-26T07:19:40Z</time>
      </trkpt>
      <trkpt lat="45.28052" lon="5.8125">
        <ele>1470.955</ele>
        <time>2010-06-26T07:20:18Z</time>
      </trkpt>
      <trkpt lat="45.28037" lon="5.81269">
        <ele>1477.684</ele>
        <time>2010-06-26T07:20:50Z</time>
      </trkpt>
      <trkpt lat="45.28024" lon="5.8131">
        <ele>1482.971</ele>
        <time>2010-06-26T07:21:35Z</time>
      </trkpt>
      <trkpt lat="45.28019" lon="5.81336">
        <ele>1486.816</ele>
        <time>2010-06-26T07:21:57Z</time>
      </trkpt>
      <trkpt lat="45.28017" lon="5.81376">
        <ele>1491.623</ele>
        <time>2010-06-26T07:22:27Z</time>
      </trkpt>
      <trkpt lat="45.28009" lon="5.81441">
        <ele>1493.545</ele>
        <time>2010-06-26T07:22:48Z</time>
      </trkpt>
      <trkpt lat="45.28002" lon="5.81499">
        <ele>1493.545</ele>
        <time>2010-06-26T07:23:06Z</time>
      </trkpt>
      <trkpt lat="45.28" lon="5.81509">
        <ele>1496.429</ele>
        <time>2010-06-26T07:23:23Z</time>
      </trkpt>
      <trkpt lat="45.28002" lon="5.8152">
        <ele>1497.391</ele>
        <time>2010-06-26T07:23:33Z</time>
      </trkpt>
      <trkpt lat="45.28009" lon="5.81527">
        <ele>1499.313</ele>
        <time>2010-06-26T07:23:51Z</time>
      </trkpt>
      <trkpt lat="45.28015" lon="5.81535">
        <ele>1491.623</ele>
        <time>2010-06-26T07:26:37Z</time>
      </trkpt>
      <trkpt lat="45.28017" lon="5.81554">
        <ele>1488.258</ele>
        <time>2010-06-26T07:27:01Z</time>
      </trkpt>
      <trkpt lat="45.28037" lon="5.8158">
        <ele>1483.932</ele>
        <time>2010-06-26T07:27:15Z</time>
      </trkpt>
      <trkpt lat="45.28058" lon="5.8161">
        <ele>1482.971</ele>
        <time>2010-06-26T07:27:32Z</time>
      </trkpt>
      <trkpt lat="45.28082" lon="5.81647">
        <ele>1476.242</ele>
        <time>2010-06-26T07:27:51Z</time>
      </trkpt>
      <trkpt lat="45.28086" lon="5.81651">
        <ele>1474.8</ele>
        <time>2010-06-26T07:27:54Z</time>
      </trkpt>
      <trkpt lat="45.2809" lon="5.8166">
        <ele>1472.396</ele>
        <time>2010-06-26T07:28:04Z</time>
      </trkpt>
      <trkpt lat="45.28092" lon="5.81675">
        <ele>1468.551</ele>
        <time>2010-06-26T07:28:21Z</time>
      </trkpt>
      <trkpt lat="45.28092" lon="5.81685">
        <ele>1468.551</ele>
        <time>2010-06-26T07:28:40Z</time>
      </trkpt>
      <trkpt lat="45.2811" lon="5.81694">
        <ele>1465.187</ele>
        <time>2010-06-26T07:29:16Z</time>
      </trkpt>
      <trkpt lat="45.28118" lon="5.81698">
        <ele>1460.38</ele>
        <time>2010-06-26T07:30:00Z</time>
      </trkpt>
      <trkpt lat="45.2814" lon="5.817">
        <ele>1451.728</ele>
        <time>2010-06-26T07:30:28Z</time>
      </trkpt>
      <trkpt lat="45.28163" lon="5.81717">
        <ele>1447.883</ele>
        <time>2010-06-26T07:30:59Z</time>
      </trkpt>
      <trkpt lat="45.28172" lon="5.81722">
        <ele>1443.557</ele>
        <time>2010-06-26T07:31:27Z</time>
      </trkpt>
      <trkpt lat="45.28195" lon="5.81726">
        <ele>1435.385</ele>
        <time>2010-06-26T07:31:48Z</time>
      </trkpt>
      <trkpt lat="45.28213" lon="5.8173">
        <ele>1430.579</ele>
        <time>2010-06-26T07:32:11Z</time>
      </trkpt>
      <trkpt lat="45.28221" lon="5.81741">
        <ele>1427.695</ele>
        <time>2010-06-26T07:32:30Z</time>
      </trkpt>
      <trkpt lat="45.2823" lon="5.81748">
        <ele>1426.253</ele>
        <time>2010-06-26T07:32:37Z</time>
      </trkpt>
      <trkpt lat="45.28253" lon="5.81758">
        <ele>1421.927</ele>
        <time>2010-06-26T07:32:56Z</time>
      </trkpt>
      <trkpt lat="45.28258" lon="5.8176">
        <ele>1420.966</ele>
        <time>2010-06-26T07:33:21Z</time>
      </trkpt>
      <trkpt lat="45.2826" lon="5.8176">
        <ele>1420.966</ele>
        <time>2010-06-26T07:33:34Z</time>
      </trkpt>
      <trkpt lat="45.28223" lon="5.817">
        <ele>1419.524</ele>
        <time>2010-06-26T07:34:00Z</time>
      </trkpt>
      <trkpt lat="45.28204" lon="5.81653">
        <ele>1417.601</ele>
        <time>2010-06-26T07:34:14Z</time>
      </trkpt>
      <trkpt lat="45.28213" lon="5.81612">
        <ele>1416.159</ele>
        <time>2010-06-26T07:34:25Z</time>
      </trkpt>
      <trkpt lat="45.28215" lon="5.81535">
        <ele>1412.795</ele>
        <time>2010-06-26T07:34:51Z</time>
      </trkpt>
      <trkpt lat="45.28221" lon="5.81535">
        <ele>1411.353</ele>
        <time>2010-06-26T07:34:57Z</time>
      </trkpt>
      <trkpt lat="45.28245" lon="5.81518">
        <ele>1409.911</ele>
        <time>2010-06-26T07:35:30Z</time>
      </trkpt>
      <trkpt lat="45.28245" lon="5.81518">
        <ele>1410.872</ele>
        <time>2010-06-26T07:35:33Z</time>
      </trkpt>
      <trkpt lat="45.2827" lon="5.81462">
        <ele>1408.469</ele>
        <time>2010-06-26T07:36:02Z</time>
      </trkpt>
      <trkpt lat="45.28273" lon="5.81462">
        <ele>1408.469</ele>
        <time>2010-06-26T07:36:07Z</time>
      </trkpt>
      <trkpt lat="45.28277" lon="5.81469">
        <ele>1409.43</ele>
        <time>2010-06-26T07:36:10Z</time>
      </trkpt>
      <trkpt lat="45.28301" lon="5.81473">
        <ele>1409.911</ele>
        <time>2010-06-26T07:36:27Z</time>
      </trkpt>
      <trkpt lat="45.28298" lon="5.81477">
        <ele>1408.949</ele>
        <time>2010-06-26T07:36:29Z</time>
      </trkpt>
      <trkpt lat="45.2829" lon="5.81542">
        <ele>1401.74</ele>
        <time>2010-06-26T07:36:39Z</time>
      </trkpt>
      <trkpt lat="45.28288" lon="5.81546">
        <ele>1401.259</ele>
        <time>2010-06-26T07:36:40Z</time>
      </trkpt>
      <trkpt lat="45.28268" lon="5.81572">
        <ele>1400.778</ele>
        <time>2010-06-26T07:36:45Z</time>
      </trkpt>
      <trkpt lat="45.2826" lon="5.81614">
        <ele>1395.491</ele>
        <time>2010-06-26T07:36:50Z</time>
      </trkpt>
      <trkpt lat="45.28264" lon="5.81666">
        <ele>1393.568</ele>
        <time>2010-06-26T07:36:58Z</time>
      </trkpt>
      <trkpt lat="45.28275" lon="5.81677">
        <ele>1386.358</ele>
        <time>2010-06-26T07:37:16Z</time>
      </trkpt>
      <trkpt lat="45.28328" lon="5.81709">
        <ele>1380.11</ele>
        <time>2010-06-26T07:37:30Z</time>
      </trkpt>
      <trkpt lat="45.28397" lon="5.81748">
        <ele>1375.784</ele>
        <time>2010-06-26T07:37:43Z</time>
      </trkpt>
      <trkpt lat="45.28498" lon="5.81838">
        <ele>1376.265</ele>
        <time>2010-06-26T07:38:11Z</time>
      </trkpt>
      <trkpt lat="45.28545" lon="5.81883">
        <ele>1376.265</ele>
        <time>2010-06-26T07:38:32Z</time>
      </trkpt>
      <trkpt lat="45.28597" lon="5.81874">
        <ele>1381.071</ele>
        <time>2010-06-26T07:38:41Z</time>
      </trkpt>
      <trkpt lat="45.28665" lon="5.81906">
        <ele>1384.917</ele>
        <time>2010-06-26T07:39:01Z</time>
      </trkpt>
      <trkpt lat="45.28687" lon="5.81926">
        <ele>1384.917</ele>
        <time>2010-06-26T07:39:05Z</time>
      </trkpt>
      <trkpt lat="45.28693" lon="5.81939">
        <ele>1383.955</ele>
        <time>2010-06-26T07:39:07Z</time>
      </trkpt>
      <trkpt lat="45.28717" lon="5.81962">
        <ele>1382.994</ele>
        <time>2010-06-26T07:39:13Z</time>
      </trkpt>
      <trkpt lat="45.28749" lon="5.81981">
        <ele>1382.032</ele>
        <time>2010-06-26T07:39:20Z</time>
      </trkpt>
      <trkpt lat="45.28807" lon="5.81958">
        <ele>1385.878</ele>
        <time>2010-06-26T07:39:37Z</time>
      </trkpt>
      <trkpt lat="45.28835" lon="5.81949">
        <ele>1388.281</ele>
        <time>2010-06-26T07:39:44Z</time>
      </trkpt>
      <trkpt lat="45.28852" lon="5.81958">
        <ele>1387.8</ele>
        <time>2010-06-26T07:39:48Z</time>
      </trkpt>
      <trkpt lat="45.28934" lon="5.81994">
        <ele>1387.32</ele>
        <time>2010-06-26T07:40:06Z</time>
      </trkpt>
      <trkpt lat="45.29015" lon="5.82057">
        <ele>1387.8</ele>
        <time>2010-06-26T07:40:29Z</time>
      </trkpt>
      <trkpt lat="45.29028" lon="5.82061">
        <ele>1395.491</ele>
        <time>2010-06-26T07:40:46Z</time>
      </trkpt>
      <trkpt lat="45.29084" lon="5.82016">
        <ele>1396.933</ele>
        <time>2010-06-26T07:41:05Z</time>
      </trkpt>
      <trkpt lat="45.2912" lon="5.82031">
        <ele>1400.778</ele>
        <time>2010-06-26T07:41:17Z</time>
      </trkpt>
      <trkpt lat="45.292" lon="5.82044">
        <ele>1406.546</ele>
        <time>2010-06-26T07:41:40Z</time>
      </trkpt>
      <trkpt lat="45.29315" lon="5.82065">
        <ele>1406.546</ele>
        <time>2010-06-26T07:42:22Z</time>
      </trkpt>
      <trkpt lat="45.29406" lon="5.82069">
        <ele>1412.795</ele>
        <time>2010-06-26T07:42:28Z</time>
      </trkpt>
      <trkpt lat="45.29517" lon="5.82087">
        <ele>1410.391</ele>
        <time>2010-06-26T07:42:50Z</time>
      </trkpt>
      <trkpt lat="45.29577" lon="5.82078">
        <ele>1408.469</ele>
        <time>2010-06-26T07:42:58Z</time>
      </trkpt>
      <trkpt lat="45.29639" lon="5.82072">
        <ele>1406.546</ele>
        <time>2010-06-26T07:43:07Z</time>
      </trkpt>
      <trkpt lat="45.29659" lon="5.8208">
        <ele>1406.065</ele>
        <time>2010-06-26T07:43:10Z</time>
      </trkpt>
      <trkpt lat="45.29734" lon="5.82097">
        <ele>1402.701</ele>
        <time>2010-06-26T07:43:22Z</time>
      </trkpt>
      <trkpt lat="45.29753" lon="5.82099">
        <ele>1402.22</ele>
        <time>2010-06-26T07:43:25Z</time>
      </trkpt>
      <trkpt lat="45.29775" lon="5.82106">
        <ele>1401.259</ele>
        <time>2010-06-26T07:43:28Z</time>
      </trkpt>
      <trkpt lat="45.2986" lon="5.82087">
        <ele>1392.126</ele>
        <time>2010-06-26T07:43:41Z</time>
      </trkpt>
      <trkpt lat="45.29882" lon="5.8208">
        <ele>1390.684</ele>
        <time>2010-06-26T07:43:45Z</time>
      </trkpt>
      <trkpt lat="45.29979" lon="5.8205">
        <ele>1386.839</ele>
        <time>2010-06-26T07:44:00Z</time>
      </trkpt>
      <trkpt lat="45.30004" lon="5.82069">
        <ele>1382.032</ele>
        <time>2010-06-26T07:44:05Z</time>
      </trkpt>
      <trkpt lat="45.30041" lon="5.82142">
        <ele>1370.497</ele>
        <time>2010-06-26T07:44:17Z</time>
      </trkpt>
      <trkpt lat="45.30073" lon="5.8217">
        <ele>1367.132</ele>
        <time>2010-06-26T07:44:24Z</time>
      </trkpt>
      <trkpt lat="45.30146" lon="5.82239">
        <ele>1354.635</ele>
        <time>2010-06-26T07:44:38Z</time>
      </trkpt>
      <trkpt lat="45.30189" lon="5.8226">
        <ele>1347.425</ele>
        <time>2010-06-26T07:44:46Z</time>
      </trkpt>
      <trkpt lat="45.30212" lon="5.8226">
        <ele>1345.983</ele>
        <time>2010-06-26T07:44:50Z</time>
      </trkpt>
      <trkpt lat="45.30292" lon="5.82232">
        <ele>1338.292</ele>
        <time>2010-06-26T07:45:04Z</time>
      </trkpt>
      <trkpt lat="45.30318" lon="5.82243">
        <ele>1336.37</ele>
        <time>2010-06-26T07:45:09Z</time>
      </trkpt>
      <trkpt lat="45.30322" lon="5.82252">
        <ele>1334.928</ele>
        <time>2010-06-26T07:45:11Z</time>
      </trkpt>
      <trkpt lat="45.30337" lon="5.82288">
        <ele>1328.679</ele>
        <time>2010-06-26T07:45:17Z</time>
      </trkpt>
      <trkpt lat="45.3038" lon="5.82338">
        <ele>1321.469</ele>
        <time>2010-06-26T07:45:26Z</time>
      </trkpt>
      <trkpt lat="45.3041" lon="5.82378">
        <ele>1320.989</ele>
        <time>2010-06-26T07:45:34Z</time>
      </trkpt>
      <trkpt lat="45.30414" lon="5.82419">
        <ele>1321.469</ele>
        <time>2010-06-26T07:45:40Z</time>
      </trkpt>
      <trkpt lat="45.30431" lon="5.82477">
        <ele>1316.663</ele>
        <time>2010-06-26T07:45:52Z</time>
      </trkpt>
      <trkpt lat="45.30431" lon="5.82529">
        <ele>1313.779</ele>
        <time>2010-06-26T07:46:02Z</time>
      </trkpt>
      <trkpt lat="45.30406" lon="5.82621">
        <ele>1313.779</ele>
        <time>2010-06-26T07:46:22Z</time>
      </trkpt>
      <trkpt lat="45.30412" lon="5.8264">
        <ele>1312.818</ele>
        <time>2010-06-26T07:46:25Z</time>
      </trkpt>
      <trkpt lat="45.30423" lon="5.82681">
        <ele>1313.298</ele>
        <time>2010-06-26T07:46:37Z</time>
      </trkpt>
      <trkpt lat="45.30423" lon="5.82683">
        <ele>1313.779</ele>
        <time>2010-06-26T07:46:52Z</time>
      </trkpt>
      <trkpt lat="45.30431" lon="5.82696">
        <ele>1304.166</ele>
        <time>2010-06-26T07:48:53Z</time>
      </trkpt>
      <trkpt lat="45.30431" lon="5.82696">
        <ele>1301.762</ele>
        <time>2010-06-26T07:49:10Z</time>
      </trkpt>
      <trkpt lat="45.30421" lon="5.82709">
        <ele>1301.282</ele>
        <time>2010-06-26T07:49:15Z</time>
      </trkpt>
      <trkpt lat="45.30388" lon="5.82771">
        <ele>1300.321</ele>
        <time>2010-06-26T07:49:40Z</time>
      </trkpt>
      <trkpt lat="45.30328" lon="5.82844">
        <ele>1300.321</ele>
        <time>2010-06-26T07:50:29Z</time>
      </trkpt>
      <trkpt lat="45.30343" lon="5.82893">
        <ele>1326.757</ele>
        <time>2010-06-26T07:50:34Z</time>
      </trkpt>
      <trkpt lat="45.30371" lon="5.82932">
        <ele>1321.469</ele>
        <time>2010-06-26T07:50:58Z</time>
      </trkpt>
      <trkpt lat="45.30478" lon="5.83003">
        <ele>1321.95</ele>
        <time>2010-06-26T07:52:10Z</time>
      </trkpt>
      <trkpt lat="45.30444" lon="5.83026">
        <ele>1349.348</ele>
        <time>2010-06-26T07:52:34Z</time>
      </trkpt>
      <trkpt lat="45.30425" lon="5.83117">
        <ele>1354.635</ele>
        <time>2010-06-26T07:53:13Z</time>
      </trkpt>
      <trkpt lat="45.30403" lon="5.83198">
        <ele>1362.325</ele>
        <time>2010-06-26T07:53:48Z</time>
      </trkpt>
      <trkpt lat="45.30373" lon="5.83286">
        <ele>1358.961</ele>
        <time>2010-06-26T07:54:29Z</time>
      </trkpt>
      <trkpt lat="45.30395" lon="5.83292">
        <ele>1369.055</ele>
        <time>2010-06-26T07:54:50Z</time>
      </trkpt>
      <trkpt lat="45.30397" lon="5.83288">
        <ele>1370.016</ele>
        <time>2010-06-26T07:56:05Z</time>
      </trkpt>
      <trkpt lat="45.30399" lon="5.83297">
        <ele>1361.364</ele>
        <time>2010-06-26T07:56:30Z</time>
      </trkpt>
      <trkpt lat="45.30386" lon="5.83297">
        <ele>1362.325</ele>
        <time>2010-06-26T07:56:38Z</time>
      </trkpt>
      <trkpt lat="45.30354" lon="5.83335">
        <ele>1362.806</ele>
        <time>2010-06-26T07:57:00Z</time>
      </trkpt>
      <trkpt lat="45.3027" lon="5.83417">
        <ele>1382.994</ele>
        <time>2010-06-26T07:57:58Z</time>
      </trkpt>
      <trkpt lat="45.30236" lon="5.83421">
        <ele>1395.972</ele>
        <time>2010-06-26T07:58:13Z</time>
      </trkpt>
      <trkpt lat="45.30193" lon="5.83428">
        <ele>1401.259</ele>
        <time>2010-06-26T07:58:39Z</time>
      </trkpt>
      <trkpt lat="45.30165" lon="5.834">
        <ele>1405.585</ele>
        <time>2010-06-26T07:58:57Z</time>
      </trkpt>
      <trkpt lat="45.30165" lon="5.83408">
        <ele>1405.104</ele>
        <time>2010-06-26T07:59:02Z</time>
      </trkpt>
      <trkpt lat="45.3018" lon="5.83479">
        <ele>1407.027</ele>
        <time>2010-06-26T07:59:28Z</time>
      </trkpt>
      <trkpt lat="45.30217" lon="5.83537">
        <ele>1408.469</ele>
        <time>2010-06-26T07:59:54Z</time>
      </trkpt>
      <trkpt lat="45.30277" lon="5.83569">
        <ele>1408.469</ele>
        <time>2010-06-26T08:00:21Z</time>
      </trkpt>
      <trkpt lat="45.30324" lon="5.83589">
        <ele>1421.447</ele>
        <time>2010-06-26T08:00:46Z</time>
      </trkpt>
      <trkpt lat="45.30358" lon="5.83486">
        <ele>1419.043</ele>
        <time>2010-06-26T08:01:03Z</time>
      </trkpt>
      <trkpt lat="45.30371" lon="5.83475">
        <ele>1419.043</ele>
        <time>2010-06-26T08:01:12Z</time>
      </trkpt>
      <trkpt lat="45.30393" lon="5.83464">
        <ele>1420.005</ele>
        <time>2010-06-26T08:01:51Z</time>
      </trkpt>
      <trkpt lat="45.30393" lon="5.83464">
        <ele>1420.005</ele>
        <time>2010-06-26T08:01:52Z</time>
      </trkpt>
      <trkpt lat="45.30386" lon="5.83468">
        <ele>1420.485</ele>
        <time>2010-06-26T08:01:57Z</time>
      </trkpt>
      <trkpt lat="45.30403" lon="5.83447">
        <ele>1420.966</ele>
        <time>2010-06-26T08:02:15Z</time>
      </trkpt>
      <trkpt lat="45.30412" lon="5.83445">
        <ele>1421.927</ele>
        <time>2010-06-26T08:02:20Z</time>
      </trkpt>
      <trkpt lat="45.30468" lon="5.83389">
        <ele>1427.215</ele>
        <time>2010-06-26T08:03:08Z</time>
      </trkpt>
      <trkpt lat="45.30509" lon="5.83359">
        <ele>1432.982</ele>
        <time>2010-06-26T08:03:33Z</time>
      </trkpt>
      <trkpt lat="45.30562" lon="5.8332">
        <ele>1433.463</ele>
        <time>2010-06-26T08:04:10Z</time>
      </trkpt>
      <trkpt lat="45.30562" lon="5.83335">
        <ele>1445.96</ele>
        <time>2010-06-26T08:04:11Z</time>
      </trkpt>
      <trkpt lat="45.30577" lon="5.83333">
        <ele>1445.479</ele>
        <time>2010-06-26T08:04:22Z</time>
      </trkpt>
      <trkpt lat="45.30603" lon="5.83316">
        <ele>1450.286</ele>
        <time>2010-06-26T08:04:47Z</time>
      </trkpt>
      <trkpt lat="45.30642" lon="5.83292">
        <ele>1453.651</ele>
        <time>2010-06-26T08:05:21Z</time>
      </trkpt>
      <trkpt lat="45.30672" lon="5.83271">
        <ele>1457.496</ele>
        <time>2010-06-26T08:05:45Z</time>
      </trkpt>
      <trkpt lat="45.30697" lon="5.83256">
        <ele>1468.071</ele>
        <time>2010-06-26T08:06:12Z</time>
      </trkpt>
      <trkpt lat="45.30706" lon="5.8322">
        <ele>1475.28</ele>
        <time>2010-06-26T08:06:16Z</time>
      </trkpt>
      <trkpt lat="45.30734" lon="5.83185">
        <ele>1480.087</ele>
        <time>2010-06-26T08:06:39Z</time>
      </trkpt>
      <trkpt lat="45.30787" lon="5.83099">
        <ele>1485.374</ele>
        <time>2010-06-26T08:07:28Z</time>
      </trkpt>
      <trkpt lat="45.30792" lon="5.83074">
        <ele>1486.336</ele>
        <time>2010-06-26T08:07:46Z</time>
      </trkpt>
      <trkpt lat="45.30798" lon="5.83018">
        <ele>1484.413</ele>
        <time>2010-06-26T08:08:23Z</time>
      </trkpt>
      <trkpt lat="45.30818" lon="5.82988">
        <ele>1494.987</ele>
        <time>2010-06-26T08:08:38Z</time>
      </trkpt>
      <trkpt lat="45.30839" lon="5.82958">
        <ele>1498.352</ele>
        <time>2010-06-26T08:09:07Z</time>
      </trkpt>
      <trkpt lat="45.30856" lon="5.82945">
        <ele>1502.678</ele>
        <time>2010-06-26T08:09:33Z</time>
      </trkpt>
      <trkpt lat="45.30908" lon="5.82936">
        <ele>1503.159</ele>
        <time>2010-06-26T08:10:11Z</time>
      </trkpt>
      <trkpt lat="45.30933" lon="5.82941">
        <ele>1510.849</ele>
        <time>2010-06-26T08:10:28Z</time>
      </trkpt>
      <trkpt lat="45.30929" lon="5.82941">
        <ele>1518.059</ele>
        <time>2010-06-26T08:10:45Z</time>
      </trkpt>
      <trkpt lat="45.30948" lon="5.82943">
        <ele>1524.788</ele>
        <time>2010-06-26T08:11:08Z</time>
      </trkpt>
      <trkpt lat="45.30983" lon="5.82938">
        <ele>1528.153</ele>
        <time>2010-06-26T08:11:47Z</time>
      </trkpt>
      <trkpt lat="45.30985" lon="5.82938">
        <ele>1530.556</ele>
        <time>2010-06-26T08:11:53Z</time>
      </trkpt>
      <trkpt lat="45.31004" lon="5.82932">
        <ele>1534.882</ele>
        <time>2010-06-26T08:12:09Z</time>
      </trkpt>
      <trkpt lat="45.31026" lon="5.82917">
        <ele>1541.131</ele>
        <time>2010-06-26T08:12:35Z</time>
      </trkpt>
      <trkpt lat="45.31094" lon="5.82842">
        <ele>1551.225</ele>
        <time>2010-06-26T08:14:23Z</time>
      </trkpt>
      <trkpt lat="45.3112" lon="5.82908">
        <ele>1563.721</ele>
        <time>2010-06-26T08:14:39Z</time>
      </trkpt>
      <trkpt lat="45.31135" lon="5.82915">
        <ele>1568.048</ele>
        <time>2010-06-26T08:14:59Z</time>
      </trkpt>
      <trkpt lat="45.31157" lon="5.82919">
        <ele>1571.893</ele>
        <time>2010-06-26T08:15:23Z</time>
      </trkpt>
      <trkpt lat="45.31163" lon="5.82926">
        <ele>1572.374</ele>
        <time>2010-06-26T08:15:57Z</time>
      </trkpt>
      <trkpt lat="45.31165" lon="5.82928">
        <ele>1572.374</ele>
        <time>2010-06-26T08:16:11Z</time>
      </trkpt>
      <trkpt lat="45.31191" lon="5.82936">
        <ele>1572.374</ele>
        <time>2010-06-26T08:16:26Z</time>
      </trkpt>
      <trkpt lat="45.31184" lon="5.82947">
        <ele>1575.738</ele>
        <time>2010-06-26T08:16:32Z</time>
      </trkpt>
      <trkpt lat="45.31174" lon="5.8296">
        <ele>1581.026</ele>
        <time>2010-06-26T08:16:51Z</time>
      </trkpt>
      <trkpt lat="45.3115" lon="5.82994">
        <ele>1583.429</ele>
        <time>2010-06-26T08:17:20Z</time>
      </trkpt>
      <trkpt lat="45.3112" lon="5.83041">
        <ele>1583.429</ele>
        <time>2010-06-26T08:18:07Z</time>
      </trkpt>
      <trkpt lat="45.31124" lon="5.83029">
        <ele>1583.429</ele>
        <time>2010-06-26T08:18:09Z</time>
      </trkpt>
      <trkpt lat="45.31118" lon="5.8305">
        <ele>1594.484</ele>
        <time>2010-06-26T08:18:26Z</time>
      </trkpt>
      <trkpt lat="45.31122" lon="5.8308">
        <ele>1600.732</ele>
        <time>2010-06-26T08:18:41Z</time>
      </trkpt>
      <trkpt lat="45.31135" lon="5.83078">
        <ele>1604.097</ele>
        <time>2010-06-26T08:18:56Z</time>
      </trkpt>
      <trkpt lat="45.31139" lon="5.83076">
        <ele>1606.02</ele>
        <time>2010-06-26T08:19:15Z</time>
      </trkpt>
      <trkpt lat="45.31161" lon="5.83084">
        <ele>1611.788</ele>
        <time>2010-06-26T08:19:36Z</time>
      </trkpt>
      <trkpt lat="45.31197" lon="5.83102">
        <ele>1622.362</ele>
        <time>2010-06-26T08:20:17Z</time>
      </trkpt>
      <trkpt lat="45.31219" lon="5.83136">
        <ele>1621.401</ele>
        <time>2010-06-26T08:20:43Z</time>
      </trkpt>
      <trkpt lat="45.3124" lon="5.83162">
        <ele>1624.765</ele>
        <time>2010-06-26T08:21:08Z</time>
      </trkpt>
      <trkpt lat="45.3126" lon="5.83198">
        <ele>1632.456</ele>
        <time>2010-06-26T08:21:41Z</time>
      </trkpt>
      <trkpt lat="45.3127" lon="5.83189">
        <ele>1631.495</ele>
        <time>2010-06-26T08:22:01Z</time>
      </trkpt>
      <trkpt lat="45.31294" lon="5.8322">
        <ele>1634.859</ele>
        <time>2010-06-26T08:22:19Z</time>
      </trkpt>
      <trkpt lat="45.31307" lon="5.83247">
        <ele>1637.743</ele>
        <time>2010-06-26T08:22:36Z</time>
      </trkpt>
      <trkpt lat="45.31302" lon="5.83262">
        <ele>1640.146</ele>
        <time>2010-06-26T08:22:59Z</time>
      </trkpt>
      <trkpt lat="45.31292" lon="5.83303">
        <ele>1645.434</ele>
        <time>2010-06-26T08:23:26Z</time>
      </trkpt>
      <trkpt lat="45.31275" lon="5.83365">
        <ele>1648.318</ele>
        <time>2010-06-26T08:24:11Z</time>
      </trkpt>
      <trkpt lat="45.31275" lon="5.83398">
        <ele>1650.24</ele>
        <time>2010-06-26T08:24:30Z</time>
      </trkpt>
      <trkpt lat="45.31283" lon="5.83411">
        <ele>1652.644</ele>
        <time>2010-06-26T08:24:47Z</time>
      </trkpt>
      <trkpt lat="45.313" lon="5.83432">
        <ele>1658.411</ele>
        <time>2010-06-26T08:25:13Z</time>
      </trkpt>
      <trkpt lat="45.31326" lon="5.83456">
        <ele>1679.561</ele>
        <time>2010-06-26T08:26:04Z</time>
      </trkpt>
      <trkpt lat="45.31343" lon="5.83473">
        <ele>1677.638</ele>
        <time>2010-06-26T08:26:24Z</time>
      </trkpt>
      <trkpt lat="45.31354" lon="5.83483">
        <ele>1681.483</ele>
        <time>2010-06-26T08:26:46Z</time>
      </trkpt>
      <trkpt lat="45.31375" lon="5.83507">
        <ele>1685.809</ele>
        <time>2010-06-26T08:27:32Z</time>
      </trkpt>
      <trkpt lat="45.31397" lon="5.83516">
        <ele>1690.135</ele>
        <time>2010-06-26T08:28:00Z</time>
      </trkpt>
      <trkpt lat="45.31412" lon="5.8352">
        <ele>1692.539</ele>
        <time>2010-06-26T08:28:22Z</time>
      </trkpt>
      <trkpt lat="45.31388" lon="5.83529">
        <ele>1691.577</ele>
        <time>2010-06-26T08:28:43Z</time>
      </trkpt>
      <trkpt lat="45.31388" lon="5.83529">
        <ele>1692.058</ele>
        <time>2010-06-26T08:31:04Z</time>
      </trkpt>
      <trkpt lat="45.31395" lon="5.83537">
        <ele>1690.135</ele>
        <time>2010-06-26T08:31:51Z</time>
      </trkpt>
      <trkpt lat="45.3141" lon="5.83578">
        <ele>1690.615</ele>
        <time>2010-06-26T08:32:06Z</time>
      </trkpt>
      <trkpt lat="45.31429" lon="5.83634">
        <ele>1693.5</ele>
        <time>2010-06-26T08:32:24Z</time>
      </trkpt>
      <trkpt lat="45.3142" lon="5.83679">
        <ele>1693.98</ele>
        <time>2010-06-26T08:32:45Z</time>
      </trkpt>
      <trkpt lat="45.31418" lon="5.83674">
        <ele>1695.422</ele>
        <time>2010-06-26T08:33:08Z</time>
      </trkpt>
      <trkpt lat="45.31418" lon="5.83672">
        <ele>1669.467</ele>
        <time>2010-06-26T08:33:47Z</time>
      </trkpt>
      <trkpt lat="45.31429" lon="5.83651">
        <ele>1708.881</ele>
        <time>2010-06-26T08:34:52Z</time>
      </trkpt>
      <trkpt lat="45.31414" lon="5.83651">
        <ele>1685.328</ele>
        <time>2010-06-26T08:36:47Z</time>
      </trkpt>
      <trkpt lat="45.31425" lon="5.83647">
        <ele>1677.157</ele>
        <time>2010-06-26T08:39:24Z</time>
      </trkpt>
      <trkpt lat="45.31425" lon="5.83647">
        <ele>1696.864</ele>
        <time>2010-06-26T08:43:22Z</time>
      </trkpt>
      <trkpt lat="45.31414" lon="5.83597">
        <ele>1692.539</ele>
        <time>2010-06-26T08:43:37Z</time>
      </trkpt>
      <trkpt lat="45.31384" lon="5.83513">
        <ele>1692.539</ele>
        <time>2010-06-26T08:44:02Z</time>
      </trkpt>
      <trkpt lat="45.31382" lon="5.83511">
        <ele>1692.058</ele>
        <time>2010-06-26T08:44:08Z</time>
      </trkpt>
      <trkpt lat="45.31365" lon="5.83496">
        <ele>1686.29</ele>
        <time>2010-06-26T08:44:30Z</time>
      </trkpt>
      <trkpt lat="45.31352" lon="5.83486">
        <ele>1679.08</ele>
        <time>2010-06-26T08:45:05Z</time>
      </trkpt>
      <trkpt lat="45.31348" lon="5.83475">
        <ele>1673.792</ele>
        <time>2010-06-26T08:45:21Z</time>
      </trkpt>
      <trkpt lat="45.3133" lon="5.83458">
        <ele>1669.947</ele>
        <time>2010-06-26T08:45:37Z</time>
      </trkpt>
      <trkpt lat="45.31221" lon="5.83308">
        <ele>1624.285</ele>
        <time>2010-06-26T08:46:46Z</time>
      </trkpt>
      <trkpt lat="45.31279" lon="5.83196">
        <ele>1628.13</ele>
        <time>2010-06-26T08:46:54Z</time>
      </trkpt>
      <trkpt lat="45.3124" lon="5.83159">
        <ele>1624.285</ele>
        <time>2010-06-26T08:47:09Z</time>
      </trkpt>
      <trkpt lat="45.31214" lon="5.83129">
        <ele>1619.478</ele>
        <time>2010-06-26T08:47:22Z</time>
      </trkpt>
      <trkpt lat="45.31161" lon="5.83078">
        <ele>1611.788</ele>
        <time>2010-06-26T08:47:46Z</time>
      </trkpt>
      <trkpt lat="45.3112" lon="5.83069">
        <ele>1606.5</ele>
        <time>2010-06-26T08:48:04Z</time>
      </trkpt>
      <trkpt lat="45.31116" lon="5.83059">
        <ele>1603.616</ele>
        <time>2010-06-26T08:48:08Z</time>
      </trkpt>
      <trkpt lat="45.31131" lon="5.83007">
        <ele>1595.926</ele>
        <time>2010-06-26T08:48:24Z</time>
      </trkpt>
      <trkpt lat="45.31137" lon="5.82994">
        <ele>1594.964</ele>
        <time>2010-06-26T08:48:28Z</time>
      </trkpt>
      <trkpt lat="45.31152" lon="5.82983">
        <ele>1591.119</ele>
        <time>2010-06-26T08:48:33Z</time>
      </trkpt>
      <trkpt lat="45.31187" lon="5.82923">
        <ele>1583.909</ele>
        <time>2010-06-26T08:48:52Z</time>
      </trkpt>
      <trkpt lat="45.31144" lon="5.82906">
        <ele>1574.296</ele>
        <time>2010-06-26T08:49:07Z</time>
      </trkpt>
      <trkpt lat="45.31069" lon="5.82889">
        <ele>1561.318</ele>
        <time>2010-06-26T08:49:35Z</time>
      </trkpt>
      <trkpt lat="45.31036" lon="5.82893">
        <ele>1553.147</ele>
        <time>2010-06-26T08:49:56Z</time>
      </trkpt>
      <trkpt lat="45.31041" lon="5.82885">
        <ele>1549.783</ele>
        <time>2010-06-26T08:50:09Z</time>
      </trkpt>
      <trkpt lat="45.31049" lon="5.82868">
        <ele>1545.937</ele>
        <time>2010-06-26T08:50:34Z</time>
      </trkpt>
      <trkpt lat="45.31011" lon="5.8282">
        <ele>1531.517</ele>
        <time>2010-06-26T08:51:08Z</time>
      </trkpt>
      <trkpt lat="45.31" lon="5.8281">
        <ele>1528.634</ele>
        <time>2010-06-26T08:51:26Z</time>
      </trkpt>
      <trkpt lat="45.30991" lon="5.82784">
        <ele>1526.711</ele>
        <time>2010-06-26T08:51:51Z</time>
      </trkpt>
      <trkpt lat="45.30987" lon="5.82767">
        <ele>1521.424</ele>
        <time>2010-06-26T08:51:58Z</time>
      </trkpt>
      <trkpt lat="45.30961" lon="5.82732">
        <ele>1517.098</ele>
        <time>2010-06-26T08:52:16Z</time>
      </trkpt>
      <trkpt lat="45.30959" lon="5.82722">
        <ele>1513.252</ele>
        <time>2010-06-26T08:52:20Z</time>
      </trkpt>
      <trkpt lat="45.30944" lon="5.82664">
        <ele>1499.313</ele>
        <time>2010-06-26T08:52:45Z</time>
      </trkpt>
      <trkpt lat="45.30933" lon="5.82636">
        <ele>1492.104</ele>
        <time>2010-06-26T08:52:58Z</time>
      </trkpt>
      <trkpt lat="45.30927" lon="5.82627">
        <ele>1488.258</ele>
        <time>2010-06-26T08:53:04Z</time>
      </trkpt>
      <trkpt lat="45.30925" lon="5.8261">
        <ele>1483.932</ele>
        <time>2010-06-26T08:53:10Z</time>
      </trkpt>
      <trkpt lat="45.30899" lon="5.82587">
        <ele>1468.071</ele>
        <time>2010-06-26T08:53:26Z</time>
      </trkpt>
      <trkpt lat="45.30878" lon="5.82578">
        <ele>1462.302</ele>
        <time>2010-06-26T08:53:34Z</time>
      </trkpt>
      <trkpt lat="45.30873" lon="5.82559">
        <ele>1461.341</ele>
        <time>2010-06-26T08:53:38Z</time>
      </trkpt>
      <trkpt lat="45.30869" lon="5.82466">
        <ele>1459.899</ele>
        <time>2010-06-26T08:54:01Z</time>
      </trkpt>
      <trkpt lat="45.30869" lon="5.82462">
        <ele>1459.899</ele>
        <time>2010-06-26T08:54:22Z</time>
      </trkpt>
      <trkpt lat="45.30882" lon="5.82441">
        <ele>1460.861</ele>
        <time>2010-06-26T08:54:27Z</time>
      </trkpt>
      <trkpt lat="45.30893" lon="5.82434">
        <ele>1460.861</ele>
        <time>2010-06-26T08:54:30Z</time>
      </trkpt>
      <trkpt lat="45.30918" lon="5.82428">
        <ele>1460.861</ele>
        <time>2010-06-26T08:54:36Z</time>
      </trkpt>
      <trkpt lat="45.30961" lon="5.82443">
        <ele>1460.861</ele>
        <time>2010-06-26T08:54:45Z</time>
      </trkpt>
      <trkpt lat="45.30985" lon="5.82415">
        <ele>1459.899</ele>
        <time>2010-06-26T08:54:52Z</time>
      </trkpt>
      <trkpt lat="45.31011" lon="5.82404">
        <ele>1459.419</ele>
        <time>2010-06-26T08:54:57Z</time>
      </trkpt>
      <trkpt lat="45.31049" lon="5.82413">
        <ele>1458.938</ele>
        <time>2010-06-26T08:55:03Z</time>
      </trkpt>
      <trkpt lat="45.31174" lon="5.82486">
        <ele>1458.457</ele>
        <time>2010-06-26T08:55:28Z</time>
      </trkpt>
      <trkpt lat="45.31266" lon="5.82544">
        <ele>1457.977</ele>
        <time>2010-06-26T08:55:55Z</time>
      </trkpt>
      <trkpt lat="45.31356" lon="5.82393">
        <ele>1457.977</ele>
        <time>2010-06-26T08:55:59Z</time>
      </trkpt>
      <trkpt lat="45.3139" lon="5.82387">
        <ele>1457.496</ele>
        <time>2010-06-26T08:56:04Z</time>
      </trkpt>
      <trkpt lat="45.315" lon="5.82378">
        <ele>1453.651</ele>
        <time>2010-06-26T08:56:20Z</time>
      </trkpt>
      <trkpt lat="45.31526" lon="5.82385">
        <ele>1448.844</ele>
        <time>2010-06-26T08:56:24Z</time>
      </trkpt>
      <trkpt lat="45.31541" lon="5.82404">
        <ele>1440.192</ele>
        <time>2010-06-26T08:56:27Z</time>
      </trkpt>
      <trkpt lat="45.31569" lon="5.82456">
        <ele>1435.866</ele>
        <time>2010-06-26T08:56:35Z</time>
      </trkpt>
      <trkpt lat="45.31588" lon="5.82466">
        <ele>1434.905</ele>
        <time>2010-06-26T08:56:39Z</time>
      </trkpt>
      <trkpt lat="45.31689" lon="5.82449">
        <ele>1433.944</ele>
        <time>2010-06-26T08:56:59Z</time>
      </trkpt>
      <trkpt lat="45.31764" lon="5.82413">
        <ele>1431.06</ele>
        <time>2010-06-26T08:57:16Z</time>
      </trkpt>
      <trkpt lat="45.31779" lon="5.82413">
        <ele>1430.098</ele>
        <time>2010-06-26T08:57:20Z</time>
      </trkpt>
      <trkpt lat="45.31918" lon="5.82434">
        <ele>1428.176</ele>
        <time>2010-06-26T08:57:49Z</time>
      </trkpt>
      <trkpt lat="45.32107" lon="5.82434">
        <ele>1427.215</ele>
        <time>2010-06-26T08:58:40Z</time>
      </trkpt>
      <trkpt lat="45.3221" lon="5.82423">
        <ele>1402.22</ele>
        <time>2010-06-26T08:58:51Z</time>
      </trkpt>
      <trkpt lat="45.32257" lon="5.82415">
        <ele>1400.778</ele>
        <time>2010-06-26T08:59:00Z</time>
      </trkpt>
      <trkpt lat="45.32347" lon="5.82413">
        <ele>1398.855</ele>
        <time>2010-06-26T08:59:18Z</time>
      </trkpt>
      <trkpt lat="45.32425" lon="5.82393">
        <ele>1395.01</ele>
        <time>2010-06-26T08:59:34Z</time>
      </trkpt>
      <trkpt lat="45.32433" lon="5.82391">
        <ele>1394.049</ele>
        <time>2010-06-26T08:59:36Z</time>
      </trkpt>
      <trkpt lat="45.32495" lon="5.82361">
        <ele>1390.204</ele>
        <time>2010-06-26T08:59:50Z</time>
      </trkpt>
      <trkpt lat="45.325" lon="5.82355">
        <ele>1389.242</ele>
        <time>2010-06-26T08:59:52Z</time>
      </trkpt>
      <trkpt lat="45.32491" lon="5.82344">
        <ele>1387.32</ele>
        <time>2010-06-26T08:59:56Z</time>
      </trkpt>
      <trkpt lat="45.32414" lon="5.82327">
        <ele>1385.878</ele>
        <time>2010-06-26T09:00:11Z</time>
      </trkpt>
      <trkpt lat="45.32135" lon="5.8226">
        <ele>1384.917</ele>
        <time>2010-06-26T09:01:18Z</time>
      </trkpt>
      <trkpt lat="45.3229" lon="5.82102">
        <ele>1384.917</ele>
        <time>2010-06-26T09:01:26Z</time>
      </trkpt>
      <trkpt lat="45.32339" lon="5.82117">
        <ele>1384.917</ele>
        <time>2010-06-26T09:01:28Z</time>
      </trkpt>
      <trkpt lat="45.32362" lon="5.82102">
        <ele>1337.812</ele>
        <time>2010-06-26T09:01:36Z</time>
      </trkpt>
      <trkpt lat="45.32465" lon="5.82069">
        <ele>1335.408</ele>
        <time>2010-06-26T09:01:55Z</time>
      </trkpt>
      <trkpt lat="45.32523" lon="5.82063">
        <ele>1334.447</ele>
        <time>2010-06-26T09:02:07Z</time>
      </trkpt>
      <trkpt lat="45.32536" lon="5.82048">
        <ele>1334.447</ele>
        <time>2010-06-26T09:02:10Z</time>
      </trkpt>
      <trkpt lat="45.32553" lon="5.82029">
        <ele>1333.967</ele>
        <time>2010-06-26T09:02:14Z</time>
      </trkpt>
      <trkpt lat="45.32566" lon="5.82018">
        <ele>1333.005</ele>
        <time>2010-06-26T09:02:17Z</time>
      </trkpt>
      <trkpt lat="45.32622" lon="5.82003">
        <ele>1330.121</ele>
        <time>2010-06-26T09:02:27Z</time>
      </trkpt>
      <trkpt lat="45.32674" lon="5.82014">
        <ele>1325.315</ele>
        <time>2010-06-26T09:02:34Z</time>
      </trkpt>
      <trkpt lat="45.32706" lon="5.82031">
        <ele>1322.431</ele>
        <time>2010-06-26T09:02:40Z</time>
      </trkpt>
      <trkpt lat="45.32854" lon="5.82102">
        <ele>1320.989</ele>
        <time>2010-06-26T09:03:05Z</time>
      </trkpt>
      <trkpt lat="45.3291" lon="5.82125">
        <ele>1320.989</ele>
        <time>2010-06-26T09:03:15Z</time>
      </trkpt>
      <trkpt lat="45.32929" lon="5.82123">
        <ele>1316.663</ele>
        <time>2010-06-26T09:03:21Z</time>
      </trkpt>
      <trkpt lat="45.32869" lon="5.81984">
        <ele>1304.646</ele>
        <time>2010-06-26T09:03:42Z</time>
      </trkpt>
      <trkpt lat="45.3285" lon="5.81979">
        <ele>1300.321</ele>
        <time>2010-06-26T09:03:45Z</time>
      </trkpt>
      <trkpt lat="45.32852" lon="5.81954">
        <ele>1294.552</ele>
        <time>2010-06-26T09:03:52Z</time>
      </trkpt>
      <trkpt lat="45.32901" lon="5.8196">
        <ele>1294.072</ele>
        <time>2010-06-26T09:04:04Z</time>
      </trkpt>
      <trkpt lat="45.32914" lon="5.81954">
        <ele>1291.188</ele>
        <time>2010-06-26T09:04:07Z</time>
      </trkpt>
      <trkpt lat="45.32998" lon="5.81906">
        <ele>1291.188</ele>
        <time>2010-06-26T09:04:25Z</time>
      </trkpt>
      <trkpt lat="45.33152" lon="5.81979">
        <ele>1222.934</ele>
        <time>2010-06-26T09:04:56Z</time>
      </trkpt>
      <trkpt lat="45.33165" lon="5.8199">
        <ele>1222.934</ele>
        <time>2010-06-26T09:04:59Z</time>
      </trkpt>
      <trkpt lat="45.33191" lon="5.82014">
        <ele>1222.934</ele>
        <time>2010-06-26T09:05:05Z</time>
      </trkpt>
      <trkpt lat="45.3324" lon="5.82037">
        <ele>1219.57</ele>
        <time>2010-06-26T09:05:16Z</time>
      </trkpt>
      <trkpt lat="45.33277" lon="5.82114">
        <ele>1217.647</ele>
        <time>2010-06-26T09:05:31Z</time>
      </trkpt>
      <trkpt lat="45.33279" lon="5.82136">
        <ele>1216.686</ele>
        <time>2010-06-26T09:05:34Z</time>
      </trkpt>
      <trkpt lat="45.33289" lon="5.82393">
        <ele>1196.979</ele>
        <time>2010-06-26T09:06:13Z</time>
      </trkpt>
      <trkpt lat="45.33098" lon="5.82434">
        <ele>1196.979</ele>
        <time>2010-06-26T09:06:32Z</time>
      </trkpt>
      <trkpt lat="45.33124" lon="5.82475">
        <ele>1196.498</ele>
        <time>2010-06-26T09:06:38Z</time>
      </trkpt>
      <trkpt lat="45.33135" lon="5.82501">
        <ele>1196.498</ele>
        <time>2010-06-26T09:06:42Z</time>
      </trkpt>
      <trkpt lat="45.33139" lon="5.82531">
        <ele>1196.498</ele>
        <time>2010-06-26T09:06:46Z</time>
      </trkpt>
      <trkpt lat="45.33148" lon="5.82548">
        <ele>1196.498</ele>
        <time>2010-06-26T09:06:49Z</time>
      </trkpt>
      <trkpt lat="45.33225" lon="5.82612">
        <ele>1196.498</ele>
        <time>2010-06-26T09:07:04Z</time>
      </trkpt>
      <trkpt lat="45.33242" lon="5.82606">
        <ele>1196.498</ele>
        <time>2010-06-26T09:07:07Z</time>
      </trkpt>
      <trkpt lat="45.33296" lon="5.82606">
        <ele>1196.498</ele>
        <time>2010-06-26T09:07:15Z</time>
      </trkpt>
      <trkpt lat="45.33313" lon="5.82623">
        <ele>1194.575</ele>
        <time>2010-06-26T09:07:19Z</time>
      </trkpt>
      <trkpt lat="45.33324" lon="5.82649">
        <ele>1194.095</ele>
        <time>2010-06-26T09:07:23Z</time>
      </trkpt>
      <trkpt lat="45.33328" lon="5.82662">
        <ele>1194.095</ele>
        <time>2010-06-26T09:07:25Z</time>
      </trkpt>
      <trkpt lat="45.33332" lon="5.82801">
        <ele>1192.172</ele>
        <time>2010-06-26T09:07:40Z</time>
      </trkpt>
      <trkpt lat="45.33352" lon="5.82838">
        <ele>1189.288</ele>
        <time>2010-06-26T09:07:49Z</time>
      </trkpt>
      <trkpt lat="45.33354" lon="5.82825">
        <ele>1189.288</ele>
        <time>2010-06-26T09:07:52Z</time>
      </trkpt>
      <trkpt lat="45.33347" lon="5.82728">
        <ele>1188.808</ele>
        <time>2010-06-26T09:08:07Z</time>
      </trkpt>
      <trkpt lat="45.33347" lon="5.82715">
        <ele>1188.808</ele>
        <time>2010-06-26T09:08:09Z</time>
      </trkpt>
      <trkpt lat="45.33352" lon="5.82694">
        <ele>1188.808</ele>
        <time>2010-06-26T09:08:12Z</time>
      </trkpt>
      <trkpt lat="45.33437" lon="5.82481">
        <ele>1186.404</ele>
        <time>2010-06-26T09:08:45Z</time>
      </trkpt>
      <trkpt lat="45.3345" lon="5.82447">
        <ele>1185.924</ele>
        <time>2010-06-26T09:08:53Z</time>
      </trkpt>
      <trkpt lat="45.33377" lon="5.82359">
        <ele>1185.924</ele>
        <time>2010-06-26T09:08:54Z</time>
      </trkpt>
      <trkpt lat="45.33392" lon="5.82335">
        <ele>1184.001</ele>
        <time>2010-06-26T09:08:57Z</time>
      </trkpt>
      <trkpt lat="45.33405" lon="5.8232">
        <ele>1183.04</ele>
        <time>2010-06-26T09:08:59Z</time>
      </trkpt>
      <trkpt lat="45.3351" lon="5.82284">
        <ele>1179.675</ele>
        <time>2010-06-26T09:09:18Z</time>
      </trkpt>
      <trkpt lat="45.33508" lon="5.82239">
        <ele>1179.194</ele>
        <time>2010-06-26T09:09:24Z</time>
      </trkpt>
      <trkpt lat="45.3344" lon="5.82052">
        <ele>1110.46</ele>
        <time>2010-06-26T09:09:50Z</time>
      </trkpt>
      <trkpt lat="45.33375" lon="5.81829">
        <ele>1109.979</ele>
        <time>2010-06-26T09:10:19Z</time>
      </trkpt>
      <trkpt lat="45.33238" lon="5.81569">
        <ele>1106.615</ele>
        <time>2010-06-26T09:11:04Z</time>
      </trkpt>
      <trkpt lat="45.33111" lon="5.81642">
        <ele>1080.659</ele>
        <time>2010-06-26T09:11:08Z</time>
      </trkpt>
      <trkpt lat="45.33047" lon="5.81589">
        <ele>1070.085</ele>
        <time>2010-06-26T09:11:20Z</time>
      </trkpt>
      <trkpt lat="45.32983" lon="5.81552">
        <ele>1058.068</ele>
        <time>2010-06-26T09:11:31Z</time>
      </trkpt>
      <trkpt lat="45.32965" lon="5.81548">
        <ele>1056.626</ele>
        <time>2010-06-26T09:11:34Z</time>
      </trkpt>
      <trkpt lat="45.3297" lon="5.81529">
        <ele>1054.704</ele>
        <time>2010-06-26T09:11:40Z</time>
      </trkpt>
      <trkpt lat="45.32995" lon="5.81537">
        <ele>1052.3</ele>
        <time>2010-06-26T09:11:46Z</time>
      </trkpt>
      <trkpt lat="45.33109" lon="5.81546">
        <ele>1050.378</ele>
        <time>2010-06-26T09:12:11Z</time>
      </trkpt>
      <trkpt lat="45.33159" lon="5.81548">
        <ele>1050.858</ele>
        <time>2010-06-26T09:12:21Z</time>
      </trkpt>
      <trkpt lat="45.33195" lon="5.81546">
        <ele>1050.858</ele>
        <time>2010-06-26T09:12:26Z</time>
      </trkpt>
      <trkpt lat="45.33292" lon="5.81606">
        <ele>1050.378</ele>
        <time>2010-06-26T09:12:41Z</time>
      </trkpt>
      <trkpt lat="45.3338" lon="5.81655">
        <ele>1050.378</ele>
        <time>2010-06-26T09:12:57Z</time>
      </trkpt>
      <trkpt lat="45.3344" lon="5.81705">
        <ele>1049.416</ele>
        <time>2010-06-26T09:13:09Z</time>
      </trkpt>
      <trkpt lat="45.33547" lon="5.81793">
        <ele>1048.455</ele>
        <time>2010-06-26T09:13:29Z</time>
      </trkpt>
      <trkpt lat="45.33586" lon="5.81842">
        <ele>1046.532</ele>
        <time>2010-06-26T09:13:37Z</time>
      </trkpt>
      <trkpt lat="45.33596" lon="5.81861">
        <ele>1046.052</ele>
        <time>2010-06-26T09:13:40Z</time>
      </trkpt>
      <trkpt lat="45.33603" lon="5.81906">
        <ele>1041.245</ele>
        <time>2010-06-26T09:13:46Z</time>
      </trkpt>
      <trkpt lat="45.33596" lon="5.8217">
        <ele>1040.764</ele>
        <time>2010-06-26T09:14:19Z</time>
      </trkpt>
      <trkpt lat="45.33579" lon="5.82921">
        <ele>1040.764</ele>
        <time>2010-06-26T09:15:59Z</time>
      </trkpt>
      <trkpt lat="45.33734" lon="5.81866">
        <ele>1040.764</ele>
        <time>2010-06-26T09:16:20Z</time>
      </trkpt>
      <trkpt lat="45.33714" lon="5.81876">
        <ele>1021.058</ele>
        <time>2010-06-26T09:18:53Z</time>
      </trkpt>
      <trkpt lat="45.3371" lon="5.81846">
        <ele>1020.096</ele>
        <time>2010-06-26T09:19:06Z</time>
      </trkpt>
      <trkpt lat="45.33699" lon="5.81844">
        <ele>942.71</ele>
        <time>2010-06-26T09:22:17Z</time>
      </trkpt>
      <trkpt lat="45.33712" lon="5.81778">
        <ele>947.517</ele>
        <time>2010-06-26T09:22:23Z</time>
      </trkpt>
      <trkpt lat="45.3371" lon="5.81649">
        <ele>951.843</ele>
        <time>2010-06-26T09:22:40Z</time>
      </trkpt>
      <trkpt lat="45.33721" lon="5.81503">
        <ele>941.749</ele>
        <time>2010-06-26T09:23:00Z</time>
      </trkpt>
      <trkpt lat="45.33714" lon="5.81338">
        <ele>933.097</ele>
        <time>2010-06-26T09:23:16Z</time>
      </trkpt>
      <trkpt lat="45.33708" lon="5.81318">
        <ele>931.174</ele>
        <time>2010-06-26T09:23:19Z</time>
      </trkpt>
      <trkpt lat="45.33699" lon="5.81306">
        <ele>929.251</ele>
        <time>2010-06-26T09:23:23Z</time>
      </trkpt>
      <trkpt lat="45.3365" lon="5.81273">
        <ele>923.003</ele>
        <time>2010-06-26T09:23:33Z</time>
      </trkpt>
      <trkpt lat="45.33624" lon="5.81301">
        <ele>919.158</ele>
        <time>2010-06-26T09:23:39Z</time>
      </trkpt>
      <trkpt lat="45.33613" lon="5.8134">
        <ele>916.754</ele>
        <time>2010-06-26T09:23:43Z</time>
      </trkpt>
      <trkpt lat="45.33571" lon="5.81348">
        <ele>910.987</ele>
        <time>2010-06-26T09:23:51Z</time>
      </trkpt>
      <trkpt lat="45.33566" lon="5.8134">
        <ele>910.025</ele>
        <time>2010-06-26T09:23:52Z</time>
      </trkpt>
      <trkpt lat="45.33433" lon="5.812">
        <ele>909.064</ele>
        <time>2010-06-26T09:24:17Z</time>
      </trkpt>
      <trkpt lat="45.3341" lon="5.81179">
        <ele>909.545</ele>
        <time>2010-06-26T09:24:22Z</time>
      </trkpt>
      <trkpt lat="45.33382" lon="5.81166">
        <ele>911.467</ele>
        <time>2010-06-26T09:24:29Z</time>
      </trkpt>
      <trkpt lat="45.33337" lon="5.81155">
        <ele>909.545</ele>
        <time>2010-06-26T09:24:40Z</time>
      </trkpt>
      <trkpt lat="45.33315" lon="5.81153">
        <ele>908.103</ele>
        <time>2010-06-26T09:24:43Z</time>
      </trkpt>
      <trkpt lat="45.33216" lon="5.81106">
        <ele>905.219</ele>
        <time>2010-06-26T09:24:57Z</time>
      </trkpt>
      <trkpt lat="45.33124" lon="5.81061">
        <ele>905.699</ele>
        <time>2010-06-26T09:25:10Z</time>
      </trkpt>
      <trkpt lat="45.32955" lon="5.81104">
        <ele>899.451</ele>
        <time>2010-06-26T09:25:29Z</time>
      </trkpt>
      <trkpt lat="45.3292" lon="5.8111">
        <ele>898.97</ele>
        <time>2010-06-26T09:25:33Z</time>
      </trkpt>
      <trkpt lat="45.32895" lon="5.81097">
        <ele>899.451</ele>
        <time>2010-06-26T09:25:37Z</time>
      </trkpt>
      <trkpt lat="45.32871" lon="5.81072">
        <ele>899.931</ele>
        <time>2010-06-26T09:25:41Z</time>
      </trkpt>
      <trkpt lat="45.32852" lon="5.81054">
        <ele>898.97</ele>
        <time>2010-06-26T09:25:44Z</time>
      </trkpt>
      <trkpt lat="45.32744" lon="5.81016">
        <ele>895.125</ele>
        <time>2010-06-26T09:25:58Z</time>
      </trkpt>
      <trkpt lat="45.32596" lon="5.81022">
        <ele>890.799</ele>
        <time>2010-06-26T09:26:19Z</time>
      </trkpt>
      <trkpt lat="45.32463" lon="5.80997">
        <ele>889.837</ele>
        <time>2010-06-26T09:26:37Z</time>
      </trkpt>
      <trkpt lat="45.32283" lon="5.80939">
        <ele>890.799</ele>
        <time>2010-06-26T09:27:11Z</time>
      </trkpt>
      <trkpt lat="45.32249" lon="5.80926">
        <ele>891.279</ele>
        <time>2010-06-26T09:27:18Z</time>
      </trkpt>
      <trkpt lat="45.32124" lon="5.80921">
        <ele>892.241</ele>
        <time>2010-06-26T09:27:40Z</time>
      </trkpt>
      <trkpt lat="45.32092" lon="5.80915">
        <ele>891.76</ele>
        <time>2010-06-26T09:27:46Z</time>
      </trkpt>
      <trkpt lat="45.32056" lon="5.809">
        <ele>891.76</ele>
        <time>2010-06-26T09:27:52Z</time>
      </trkpt>
      <trkpt lat="45.3195" lon="5.80898">
        <ele>893.202</ele>
        <time>2010-06-26T09:28:09Z</time>
      </trkpt>
      <trkpt lat="45.31942" lon="5.80889">
        <ele>893.202</ele>
        <time>2010-06-26T09:28:11Z</time>
      </trkpt>
      <trkpt lat="45.31918" lon="5.80878">
        <ele>892.722</ele>
        <time>2010-06-26T09:28:15Z</time>
      </trkpt>
      <trkpt lat="45.31837" lon="5.80851">
        <ele>891.76</ele>
        <time>2010-06-26T09:28:28Z</time>
      </trkpt>
      <trkpt lat="45.3182" lon="5.80801">
        <ele>890.318</ele>
        <time>2010-06-26T09:28:34Z</time>
      </trkpt>
      <trkpt lat="45.31826" lon="5.80728">
        <ele>889.357</ele>
        <time>2010-06-26T09:28:42Z</time>
      </trkpt>
      <trkpt lat="45.31869" lon="5.80679">
        <ele>890.318</ele>
        <time>2010-06-26T09:28:52Z</time>
      </trkpt>
      <trkpt lat="45.32023" lon="5.80651">
        <ele>889.837</ele>
        <time>2010-06-26T09:29:18Z</time>
      </trkpt>
      <trkpt lat="45.3209" lon="5.80647">
        <ele>888.876</ele>
        <time>2010-06-26T09:29:28Z</time>
      </trkpt>
      <trkpt lat="45.32217" lon="5.80651">
        <ele>884.55</ele>
        <time>2010-06-26T09:29:47Z</time>
      </trkpt>
      <trkpt lat="45.32232" lon="5.80617">
        <ele>885.511</ele>
        <time>2010-06-26T09:29:53Z</time>
      </trkpt>
      <trkpt lat="45.32227" lon="5.80426">
        <ele>887.915</ele>
        <time>2010-06-26T09:30:18Z</time>
      </trkpt>
      <trkpt lat="45.32223" lon="5.80359">
        <ele>890.318</ele>
        <time>2010-06-26T09:30:34Z</time>
      </trkpt>
      <trkpt lat="45.3221" lon="5.80344">
        <ele>891.279</ele>
        <time>2010-06-26T09:30:40Z</time>
      </trkpt>
      <trkpt lat="45.32139" lon="5.8034">
        <ele>897.528</ele>
        <time>2010-06-26T09:31:07Z</time>
      </trkpt>
      <trkpt lat="45.32056" lon="5.80344">
        <ele>905.219</ele>
        <time>2010-06-26T09:31:42Z</time>
      </trkpt>
      <trkpt lat="45.31993" lon="5.80417">
        <ele>910.987</ele>
        <time>2010-06-26T09:32:16Z</time>
      </trkpt>
      <trkpt lat="45.31935" lon="5.80426">
        <ele>920.119</ele>
        <time>2010-06-26T09:32:42Z</time>
      </trkpt>
      <trkpt lat="45.31841" lon="5.80364">
        <ele>934.058</ele>
        <time>2010-06-26T09:33:27Z</time>
      </trkpt>
      <trkpt lat="45.3174" lon="5.80273">
        <ele>942.71</ele>
        <time>2010-06-26T09:34:10Z</time>
      </trkpt>
      <trkpt lat="45.31676" lon="5.80265">
        <ele>944.152</ele>
        <time>2010-06-26T09:34:28Z</time>
      </trkpt>
      <trkpt lat="45.31659" lon="5.80218">
        <ele>947.036</ele>
        <time>2010-06-26T09:34:38Z</time>
      </trkpt>
      <trkpt lat="45.31663" lon="5.8005">
        <ele>950.401</ele>
        <time>2010-06-26T09:35:10Z</time>
      </trkpt>
      <trkpt lat="45.31667" lon="5.80012">
        <ele>952.323</ele>
        <time>2010-06-26T09:35:16Z</time>
      </trkpt>
      <trkpt lat="45.31652" lon="5.79906">
        <ele>951.362</ele>
        <time>2010-06-26T09:35:33Z</time>
      </trkpt>
      <trkpt lat="45.3168" lon="5.79883">
        <ele>952.804</ele>
        <time>2010-06-26T09:35:40Z</time>
      </trkpt>
      <trkpt lat="45.31704" lon="5.799">
        <ele>953.284</ele>
        <time>2010-06-26T09:35:46Z</time>
      </trkpt>
      <trkpt lat="45.31721" lon="5.79919">
        <ele>953.765</ele>
        <time>2010-06-26T09:35:51Z</time>
      </trkpt>
      <trkpt lat="45.31749" lon="5.7993">
        <ele>955.688</ele>
        <time>2010-06-26T09:35:58Z</time>
      </trkpt>
      <trkpt lat="45.31749" lon="5.79887">
        <ele>953.284</ele>
        <time>2010-06-26T09:36:03Z</time>
      </trkpt>
      <trkpt lat="45.31732" lon="5.79743">
        <ele>947.997</ele>
        <time>2010-06-26T09:36:16Z</time>
      </trkpt>
      <trkpt lat="45.31734" lon="5.79625">
        <ele>947.517</ele>
        <time>2010-06-26T09:36:27Z</time>
      </trkpt>
      <trkpt lat="45.31717" lon="5.79567">
        <ele>945.594</ele>
        <time>2010-06-26T09:36:34Z</time>
      </trkpt>
      <trkpt lat="45.31601" lon="5.79409">
        <ele>945.594</ele>
        <time>2010-06-26T09:36:56Z</time>
      </trkpt>
      <trkpt lat="45.31558" lon="5.79353">
        <ele>945.594</ele>
        <time>2010-06-26T09:37:04Z</time>
      </trkpt>
      <trkpt lat="45.31564" lon="5.79301">
        <ele>945.594</ele>
        <time>2010-06-26T09:37:10Z</time>
      </trkpt>
      <trkpt lat="45.31545" lon="5.79239">
        <ele>943.671</ele>
        <time>2010-06-26T09:37:19Z</time>
      </trkpt>
      <trkpt lat="45.315" lon="5.79196">
        <ele>941.749</ele>
        <time>2010-06-26T09:37:28Z</time>
      </trkpt>
      <trkpt lat="45.31483" lon="5.79132">
        <ele>940.787</ele>
        <time>2010-06-26T09:37:35Z</time>
      </trkpt>
      <trkpt lat="45.31485" lon="5.79108">
        <ele>939.826</ele>
        <time>2010-06-26T09:37:37Z</time>
      </trkpt>
      <trkpt lat="45.31459" lon="5.79003">
        <ele>939.345</ele>
        <time>2010-06-26T09:37:48Z</time>
      </trkpt>
      <trkpt lat="45.31453" lon="5.78969">
        <ele>939.345</ele>
        <time>2010-06-26T09:37:52Z</time>
      </trkpt>
      <trkpt lat="45.31444" lon="5.78829">
        <ele>941.749</ele>
        <time>2010-06-26T09:38:10Z</time>
      </trkpt>
      <trkpt lat="45.31416" lon="5.7875">
        <ele>943.191</ele>
        <time>2010-06-26T09:38:22Z</time>
      </trkpt>
      <trkpt lat="45.3136" lon="5.7869">
        <ele>947.997</ele>
        <time>2010-06-26T09:38:42Z</time>
      </trkpt>
      <trkpt lat="45.3132" lon="5.78696">
        <ele>953.284</ele>
        <time>2010-06-26T09:39:04Z</time>
      </trkpt>
      <trkpt lat="45.31247" lon="5.78694">
        <ele>960.014</ele>
        <time>2010-06-26T09:39:44Z</time>
      </trkpt>
      <trkpt lat="45.31189" lon="5.78649">
        <ele>960.014</ele>
        <time>2010-06-26T09:40:13Z</time>
      </trkpt>
      <trkpt lat="45.31133" lon="5.78604">
        <ele>960.494</ele>
        <time>2010-06-26T09:40:44Z</time>
      </trkpt>
      <trkpt lat="45.31075" lon="5.78578">
        <ele>960.494</ele>
        <time>2010-06-26T09:41:10Z</time>
      </trkpt>
      <trkpt lat="45.30981" lon="5.78503">
        <ele>960.494</ele>
        <time>2010-06-26T09:41:57Z</time>
      </trkpt>
      <trkpt lat="45.30835" lon="5.78346">
        <ele>960.975</ele>
        <time>2010-06-26T09:43:06Z</time>
      </trkpt>
      <trkpt lat="45.30839" lon="5.78282">
        <ele>997.986</ele>
        <time>2010-06-26T09:43:19Z</time>
      </trkpt>
      <trkpt lat="45.30818" lon="5.78252">
        <ele>1000.389</ele>
        <time>2010-06-26T09:43:40Z</time>
      </trkpt>
      <trkpt lat="45.30779" lon="5.78194">
        <ele>1006.157</ele>
        <time>2010-06-26T09:44:17Z</time>
      </trkpt>
      <trkpt lat="45.30727" lon="5.78156">
        <ele>1015.77</ele>
        <time>2010-06-26T09:44:57Z</time>
      </trkpt>
      <trkpt lat="45.30674" lon="5.78106">
        <ele>1018.654</ele>
        <time>2010-06-26T09:45:43Z</time>
      </trkpt>
      <trkpt lat="45.30609" lon="5.78046">
        <ele>1022.98</ele>
        <time>2010-06-26T09:46:40Z</time>
      </trkpt>
      <trkpt lat="45.30558" lon="5.7804">
        <ele>1031.151</ele>
        <time>2010-06-26T09:47:15Z</time>
      </trkpt>
      <trkpt lat="45.30524" lon="5.78059">
        <ele>1034.516</ele>
        <time>2010-06-26T09:47:40Z</time>
      </trkpt>
      <trkpt lat="45.30517" lon="5.7805">
        <ele>1038.842</ele>
        <time>2010-06-26T09:47:46Z</time>
      </trkpt>
      <trkpt lat="45.30468" lon="5.78007">
        <ele>1045.09</ele>
        <time>2010-06-26T09:48:27Z</time>
      </trkpt>
      <trkpt lat="45.3044" lon="5.77997">
        <ele>1045.09</ele>
        <time>2010-06-26T09:48:47Z</time>
      </trkpt>
      <trkpt lat="45.30427" lon="5.77971">
        <ele>1047.494</ele>
        <time>2010-06-26T09:49:03Z</time>
      </trkpt>
      <trkpt lat="45.30427" lon="5.7796">
        <ele>1053.742</ele>
        <time>2010-06-26T09:49:23Z</time>
      </trkpt>
      <trkpt lat="45.30429" lon="5.77956">
        <ele>1053.742</ele>
        <time>2010-06-26T09:49:28Z</time>
      </trkpt>
      <trkpt lat="45.30453" lon="5.77926">
        <ele>1058.549</ele>
        <time>2010-06-26T09:50:19Z</time>
      </trkpt>
      <trkpt lat="45.30491" lon="5.77889">
        <ele>1058.068</ele>
        <time>2010-06-26T09:51:28Z</time>
      </trkpt>
      <trkpt lat="45.30498" lon="5.77874">
        <ele>1062.875</ele>
        <time>2010-06-26T09:52:06Z</time>
      </trkpt>
      <trkpt lat="45.30491" lon="5.77862">
        <ele>1065.278</ele>
        <time>2010-06-26T09:53:21Z</time>
      </trkpt>
      <trkpt lat="45.30483" lon="5.77838">
        <ele>1068.643</ele>
        <time>2010-06-26T09:53:52Z</time>
      </trkpt>
      <trkpt lat="45.30451" lon="5.77767">
        <ele>1084.505</ele>
        <time>2010-06-26T09:54:58Z</time>
      </trkpt>
      <trkpt lat="45.30418" lon="5.77707">
        <ele>1091.714</ele>
        <time>2010-06-26T09:56:11Z</time>
      </trkpt>
      <trkpt lat="45.30401" lon="5.77656">
        <ele>1095.56</ele>
        <time>2010-06-26T09:57:06Z</time>
      </trkpt>
      <trkpt lat="45.30395" lon="5.77647">
        <ele>1100.366</ele>
        <time>2010-06-26T09:57:42Z</time>
      </trkpt>
      <trkpt lat="45.30393" lon="5.77645">
        <ele>1100.847</ele>
        <time>2010-06-26T09:57:46Z</time>
      </trkpt>
      <trkpt lat="45.30386" lon="5.77623">
        <ele>1103.731</ele>
        <time>2010-06-26T09:58:18Z</time>
      </trkpt>
      <trkpt lat="45.30393" lon="5.77613">
        <ele>1104.212</ele>
        <time>2010-06-26T09:58:59Z</time>
      </trkpt>
      <trkpt lat="45.30408" lon="5.77615">
        <ele>1112.863</ele>
        <time>2010-06-26T09:59:38Z</time>
      </trkpt>
      <trkpt lat="45.30436" lon="5.77606">
        <ele>1118.151</ele>
        <time>2010-06-26T10:00:20Z</time>
      </trkpt>
      <trkpt lat="45.30457" lon="5.7758">
        <ele>1127.764</ele>
        <time>2010-06-26T10:01:09Z</time>
      </trkpt>
      <trkpt lat="45.30451" lon="5.77561">
        <ele>1132.09</ele>
        <time>2010-06-26T10:01:38Z</time>
      </trkpt>
      <trkpt lat="45.30433" lon="5.77533">
        <ele>1137.858</ele>
        <time>2010-06-26T10:02:06Z</time>
      </trkpt>
      <trkpt lat="45.30408" lon="5.77512">
        <ele>1144.587</ele>
        <time>2010-06-26T10:03:13Z</time>
      </trkpt>
      <trkpt lat="45.30403" lon="5.77507">
        <ele>1155.642</ele>
        <time>2010-06-26T10:04:15Z</time>
      </trkpt>
      <trkpt lat="45.30397" lon="5.77518">
        <ele>1158.045</ele>
        <time>2010-06-26T10:05:57Z</time>
      </trkpt>
      <trkpt lat="45.30388" lon="5.77469">
        <ele>1159.007</ele>
        <time>2010-06-26T10:06:32Z</time>
      </trkpt>
      <trkpt lat="45.30391" lon="5.77426">
        <ele>1160.448</ele>
        <time>2010-06-26T10:07:15Z</time>
      </trkpt>
      <trkpt lat="45.30386" lon="5.7737">
        <ele>1160.448</ele>
        <time>2010-06-26T10:07:42Z</time>
      </trkpt>
      <trkpt lat="45.30375" lon="5.77321">
        <ele>1162.371</ele>
        <time>2010-06-26T10:08:07Z</time>
      </trkpt>
      <trkpt lat="45.30337" lon="5.77224">
        <ele>1166.217</ele>
        <time>2010-06-26T10:09:22Z</time>
      </trkpt>
      <trkpt lat="45.30335" lon="5.77203">
        <ele>1217.647</ele>
        <time>2010-06-26T10:09:45Z</time>
      </trkpt>
      <trkpt lat="45.30328" lon="5.77205">
        <ele>1228.702</ele>
        <time>2010-06-26T10:10:39Z</time>
      </trkpt>
      <trkpt lat="45.30257" lon="5.77252">
        <ele>1229.664</ele>
        <time>2010-06-26T10:11:35Z</time>
      </trkpt>
      <trkpt lat="45.30219" lon="5.77151">
        <ele>1228.702</ele>
        <time>2010-06-26T10:11:41Z</time>
      </trkpt>
      <trkpt lat="45.30169" lon="5.77141">
        <ele>1232.548</ele>
        <time>2010-06-26T10:12:11Z</time>
      </trkpt>
      <trkpt lat="45.30099" lon="5.77087">
        <ele>1232.548</ele>
        <time>2010-06-26T10:13:06Z</time>
      </trkpt>
      <trkpt lat="45.30056" lon="5.77053">
        <ele>1233.028</ele>
        <time>2010-06-26T10:13:50Z</time>
      </trkpt>
      <trkpt lat="45.29996" lon="5.77029">
        <ele>1233.99</ele>
        <time>2010-06-26T10:14:33Z</time>
      </trkpt>
      <trkpt lat="45.29933" lon="5.76995">
        <ele>1233.99</ele>
        <time>2010-06-26T10:15:15Z</time>
      </trkpt>
      <trkpt lat="45.29897" lon="5.76977">
        <ele>1233.99</ele>
        <time>2010-06-26T10:15:38Z</time>
      </trkpt>
      <trkpt lat="45.29843" lon="5.76984">
        <ele>1244.083</ele>
        <time>2010-06-26T10:16:12Z</time>
      </trkpt>
      <trkpt lat="45.29783" lon="5.76971">
        <ele>1246.967</ele>
        <time>2010-06-26T10:16:51Z</time>
      </trkpt>
      <trkpt lat="45.29721" lon="5.7698">
        <ele>1247.929</ele>
        <time>2010-06-26T10:17:19Z</time>
      </trkpt>
      <trkpt lat="45.29665" lon="5.76997">
        <ele>1250.332</ele>
        <time>2010-06-26T10:17:46Z</time>
      </trkpt>
      <trkpt lat="45.29616" lon="5.76952">
        <ele>1257.542</ele>
        <time>2010-06-26T10:18:06Z</time>
      </trkpt>
      <trkpt lat="45.29545" lon="5.76902">
        <ele>1265.232</ele>
        <time>2010-06-26T10:18:36Z</time>
      </trkpt>
      <trkpt lat="45.29442" lon="5.76879">
        <ele>1271.961</ele>
        <time>2010-06-26T10:19:16Z</time>
      </trkpt>
      <trkpt lat="45.29356" lon="5.76838">
        <ele>1274.365</ele>
        <time>2010-06-26T10:19:53Z</time>
      </trkpt>
      <trkpt lat="45.29298" lon="5.76825">
        <ele>1275.326</ele>
        <time>2010-06-26T10:20:17Z</time>
      </trkpt>
      <trkpt lat="45.29236" lon="5.76825">
        <ele>1277.249</ele>
        <time>2010-06-26T10:20:45Z</time>
      </trkpt>
      <trkpt lat="45.2921" lon="5.76825">
        <ele>1284.939</ele>
        <time>2010-06-26T10:21:14Z</time>
      </trkpt>
      <trkpt lat="45.292" lon="5.76834">
        <ele>1333.967</ele>
        <time>2010-06-26T10:26:07Z</time>
      </trkpt>
      <trkpt lat="45.29142" lon="5.76812">
        <ele>1330.121</ele>
        <time>2010-06-26T10:26:34Z</time>
      </trkpt>
      <trkpt lat="45.29073" lon="5.76808">
        <ele>1330.121</ele>
        <time>2010-06-26T10:27:06Z</time>
      </trkpt>
      <trkpt lat="45.29052" lon="5.7681">
        <ele>1331.563</ele>
        <time>2010-06-26T10:27:16Z</time>
      </trkpt>
      <trkpt lat="45.29028" lon="5.76814">
        <ele>1331.083</ele>
        <time>2010-06-26T10:27:29Z</time>
      </trkpt>
      <trkpt lat="45.29022" lon="5.76827">
        <ele>1331.563</ele>
        <time>2010-06-26T10:27:34Z</time>
      </trkpt>
      <trkpt lat="45.2897" lon="5.76836">
        <ele>1332.525</ele>
        <time>2010-06-26T10:27:57Z</time>
      </trkpt>
      <trkpt lat="45.28901" lon="5.76855">
        <ele>1334.928</ele>
        <time>2010-06-26T10:28:28Z</time>
      </trkpt>
      <trkpt lat="45.28865" lon="5.76844">
        <ele>1337.812</ele>
        <time>2010-06-26T10:28:46Z</time>
      </trkpt>
      <trkpt lat="45.28835" lon="5.76814">
        <ele>1336.37</ele>
        <time>2010-06-26T10:29:04Z</time>
      </trkpt>
      <trkpt lat="45.28775" lon="5.76844">
        <ele>1336.37</ele>
        <time>2010-06-26T10:29:36Z</time>
      </trkpt>
      <trkpt lat="45.28687" lon="5.76885">
        <ele>1337.812</ele>
        <time>2010-06-26T10:30:05Z</time>
      </trkpt>
      <trkpt lat="45.28667" lon="5.7689">
        <ele>1337.331</ele>
        <time>2010-06-26T10:30:10Z</time>
      </trkpt>
      <trkpt lat="45.28579" lon="5.7692">
        <ele>1333.967</ele>
        <time>2010-06-26T10:30:26Z</time>
      </trkpt>
      <trkpt lat="45.28474" lon="5.76868">
        <ele>1325.795</ele>
        <time>2010-06-26T10:30:54Z</time>
      </trkpt>
      <trkpt lat="45.28401" lon="5.7681">
        <ele>1320.508</ele>
        <time>2010-06-26T10:31:17Z</time>
      </trkpt>
      <trkpt lat="45.28296" lon="5.76714">
        <ele>1314.74</ele>
        <time>2010-06-26T10:31:49Z</time>
      </trkpt>
      <trkpt lat="45.28251" lon="5.76656">
        <ele>1303.204</ele>
        <time>2010-06-26T10:32:04Z</time>
      </trkpt>
      <trkpt lat="45.28202" lon="5.76568">
        <ele>1299.84</ele>
        <time>2010-06-26T10:32:20Z</time>
      </trkpt>
      <trkpt lat="45.28202" lon="5.76576">
        <ele>1299.84</ele>
        <time>2010-06-26T10:32:24Z</time>
      </trkpt>
      <trkpt lat="45.2824" lon="5.76621">
        <ele>1295.995</ele>
        <time>2010-06-26T10:32:30Z</time>
      </trkpt>
      <trkpt lat="45.2823" lon="5.76662">
        <ele>1294.072</ele>
        <time>2010-06-26T10:32:35Z</time>
      </trkpt>
      <trkpt lat="45.28204" lon="5.76675">
        <ele>1294.552</ele>
        <time>2010-06-26T10:32:37Z</time>
      </trkpt>
      <trkpt lat="45.28195" lon="5.76669">
        <ele>1294.552</ele>
        <time>2010-06-26T10:32:39Z</time>
      </trkpt>
      <trkpt lat="45.28172" lon="5.76658">
        <ele>1295.033</ele>
        <time>2010-06-26T10:32:43Z</time>
      </trkpt>
      <trkpt lat="45.28075" lon="5.76611">
        <ele>1293.111</ele>
        <time>2010-06-26T10:32:55Z</time>
      </trkpt>
      <trkpt lat="45.27983" lon="5.76615">
        <ele>1279.171</ele>
        <time>2010-06-26T10:33:05Z</time>
      </trkpt>
      <trkpt lat="45.27839" lon="5.76583">
        <ele>1268.116</ele>
        <time>2010-06-26T10:33:21Z</time>
      </trkpt>
      <trkpt lat="45.27472" lon="5.76561">
        <ele>1261.387</ele>
        <time>2010-06-26T10:34:04Z</time>
      </trkpt>
      <trkpt lat="45.27459" lon="5.76566">
        <ele>1260.906</ele>
        <time>2010-06-26T10:34:06Z</time>
      </trkpt>
      <trkpt lat="45.27436" lon="5.76589">
        <ele>1260.906</ele>
        <time>2010-06-26T10:34:11Z</time>
      </trkpt>
      <trkpt lat="45.27429" lon="5.76641">
        <ele>1258.022</ele>
        <time>2010-06-26T10:34:17Z</time>
      </trkpt>
      <trkpt lat="45.27464" lon="5.7678">
        <ele>1255.619</ele>
        <time>2010-06-26T10:34:25Z</time>
      </trkpt>
      <trkpt lat="45.27419" lon="5.76752">
        <ele>1255.138</ele>
        <time>2010-06-26T10:34:28Z</time>
      </trkpt>
      <trkpt lat="45.27386" lon="5.76664">
        <ele>1254.658</ele>
        <time>2010-06-26T10:34:39Z</time>
      </trkpt>
      <trkpt lat="45.27331" lon="5.76589">
        <ele>1252.735</ele>
        <time>2010-06-26T10:34:50Z</time>
      </trkpt>
      <trkpt lat="45.27281" lon="5.76555">
        <ele>1246.487</ele>
        <time>2010-06-26T10:34:56Z</time>
      </trkpt>
      <trkpt lat="45.27253" lon="5.76574">
        <ele>1231.106</ele>
        <time>2010-06-26T10:35:04Z</time>
      </trkpt>
      <trkpt lat="45.27253" lon="5.76583">
        <ele>1229.183</ele>
        <time>2010-06-26T10:35:05Z</time>
      </trkpt>
      <trkpt lat="45.27238" lon="5.76675">
        <ele>1221.973</ele>
        <time>2010-06-26T10:35:15Z</time>
      </trkpt>
      <trkpt lat="45.27225" lon="5.76692">
        <ele>1221.973</ele>
        <time>2010-06-26T10:35:18Z</time>
      </trkpt>
      <trkpt lat="45.27195" lon="5.76714">
        <ele>1217.647</ele>
        <time>2010-06-26T10:35:23Z</time>
      </trkpt>
      <trkpt lat="45.27155" lon="5.76825">
        <ele>1211.879</ele>
        <time>2010-06-26T10:35:34Z</time>
      </trkpt>
      <trkpt lat="45.2711" lon="5.77025">
        <ele>1207.553</ele>
        <time>2010-06-26T10:35:51Z</time>
      </trkpt>
      <trkpt lat="45.27004" lon="5.77072">
        <ele>1176.31</ele>
        <time>2010-06-26T10:36:06Z</time>
      </trkpt>
      <trkpt lat="45.26695" lon="5.77248">
        <ele>1159.487</ele>
        <time>2010-06-26T10:36:44Z</time>
      </trkpt>
      <trkpt lat="45.26638" lon="5.77282">
        <ele>1157.084</ele>
        <time>2010-06-26T10:36:51Z</time>
      </trkpt>
      <trkpt lat="45.26543" lon="5.77317">
        <ele>1137.858</ele>
        <time>2010-06-26T10:37:03Z</time>
      </trkpt>
      <trkpt lat="45.26459" lon="5.77422">
        <ele>1111.902</ele>
        <time>2010-06-26T10:37:16Z</time>
      </trkpt>
      <trkpt lat="45.26468" lon="5.77482">
        <ele>1103.25</ele>
        <time>2010-06-26T10:37:24Z</time>
      </trkpt>
      <trkpt lat="45.26477" lon="5.77486">
        <ele>1101.328</ele>
        <time>2010-06-26T10:37:25Z</time>
      </trkpt>
      <trkpt lat="45.26507" lon="5.77518">
        <ele>1094.118</ele>
        <time>2010-06-26T10:37:30Z</time>
      </trkpt>
      <trkpt lat="45.2653" lon="5.77559">
        <ele>1088.35</ele>
        <time>2010-06-26T10:37:35Z</time>
      </trkpt>
      <trkpt lat="45.2655" lon="5.77641">
        <ele>1080.659</ele>
        <time>2010-06-26T10:37:43Z</time>
      </trkpt>
      <trkpt lat="45.26535" lon="5.77711">
        <ele>1078.737</ele>
        <time>2010-06-26T10:37:49Z</time>
      </trkpt>
      <trkpt lat="45.26496" lon="5.77741">
        <ele>1071.527</ele>
        <time>2010-06-26T10:37:55Z</time>
      </trkpt>
      <trkpt lat="45.26324" lon="5.77771">
        <ele>1054.223</ele>
        <time>2010-06-26T10:38:13Z</time>
      </trkpt>
      <trkpt lat="45.26204" lon="5.77786">
        <ele>1043.648</ele>
        <time>2010-06-26T10:38:27Z</time>
      </trkpt>
      <trkpt lat="45.26174" lon="5.77776">
        <ele>1039.323</ele>
        <time>2010-06-26T10:38:32Z</time>
      </trkpt>
      <trkpt lat="45.26093" lon="5.77722">
        <ele>1029.229</ele>
        <time>2010-06-26T10:38:45Z</time>
      </trkpt>
      <trkpt lat="45.2603" lon="5.77724">
        <ele>1023.461</ele>
        <time>2010-06-26T10:38:54Z</time>
      </trkpt>
      <trkpt lat="45.26015" lon="5.77716">
        <ele>1021.538</ele>
        <time>2010-06-26T10:38:57Z</time>
      </trkpt>
      <trkpt lat="45.2597" lon="5.77713">
        <ele>1017.212</ele>
        <time>2010-06-26T10:39:04Z</time>
      </trkpt>
      <trkpt lat="45.25869" lon="5.77656">
        <ele>1005.196</ele>
        <time>2010-06-26T10:39:16Z</time>
      </trkpt>
      <trkpt lat="45.25811" lon="5.7763">
        <ele>1001.35</ele>
        <time>2010-06-26T10:39:22Z</time>
      </trkpt>
      <trkpt lat="45.25588" lon="5.77486">
        <ele>983.085</ele>
        <time>2010-06-26T10:39:45Z</time>
      </trkpt>
      <trkpt lat="45.25565" lon="5.7746">
        <ele>981.643</ele>
        <time>2010-06-26T10:39:48Z</time>
      </trkpt>
      <trkpt lat="45.25479" lon="5.77254">
        <ele>979.24</ele>
        <time>2010-06-26T10:40:07Z</time>
      </trkpt>
      <trkpt lat="45.25468" lon="5.77222">
        <ele>978.76</ele>
        <time>2010-06-26T10:40:10Z</time>
      </trkpt>
      <trkpt lat="45.25462" lon="5.77128">
        <ele>975.875</ele>
        <time>2010-06-26T10:40:21Z</time>
      </trkpt>
      <trkpt lat="45.25438" lon="5.77121">
        <ele>973.953</ele>
        <time>2010-06-26T10:40:28Z</time>
      </trkpt>
      <trkpt lat="45.25365" lon="5.7708">
        <ele>976.356</ele>
        <time>2010-06-26T10:40:53Z</time>
      </trkpt>
      <trkpt lat="45.25236" lon="5.77027">
        <ele>980.201</ele>
        <time>2010-06-26T10:41:34Z</time>
      </trkpt>
      <trkpt lat="45.25144" lon="5.76977">
        <ele>984.527</ele>
        <time>2010-06-26T10:42:06Z</time>
      </trkpt>
      <trkpt lat="45.2506" lon="5.76917">
        <ele>986.45</ele>
        <time>2010-06-26T10:42:34Z</time>
      </trkpt>
      <trkpt lat="45.25056" lon="5.76911">
        <ele>986.93</ele>
        <time>2010-06-26T10:42:36Z</time>
      </trkpt>
      <trkpt lat="45.25063" lon="5.76881">
        <ele>984.047</ele>
        <time>2010-06-26T10:42:52Z</time>
      </trkpt>
      <trkpt lat="45.25063" lon="5.76885">
        <ele>982.605</ele>
        <time>2010-06-26T10:44:08Z</time>
      </trkpt>
      <trkpt lat="45.25065" lon="5.76887">
        <ele>971.549</ele>
        <time>2010-06-26T11:07:34Z</time>
      </trkpt>
    </trkseg>
  </trk>
</gpx>